Wetterdaten: Dienstag, 05.11.2019
Datum Zeit Temp. Aussen Temp. o. S. Temp +5cm Feuchte Auss Luftdruck Regen Sonnenschein Regendauer Solar Windben Empfang
05.11.2019 00:00 9,1 C 7,8 C 7,2 C 97 % 991,9 hPa 0,0 l/m 0 min 2 min 0 W/m 3,2 km/h (1 Bft) 97,87 %
05.11.2019 00:02 9,1 C 7,8 C 7,2 C 97 % 992,0 hPa 0,0 l/m 0 min 2 min 0 W/m 6,4 km/h (2 Bft) 100,00 %
05.11.2019 00:04 9,1 C 7,8 C 7,2 C 97 % 992,0 hPa 0,0 l/m 0 min 2 min 0 W/m 3,2 km/h (1 Bft) 97,87 %
05.11.2019 00:08 9,1 C 7,8 C 7,2 C 97 % 992,0 hPa 0,0 l/m 0 min 0 min 0 W/m 3,2 km/h (1 Bft) 97,87 %
05.11.2019 00:10 9,1 C 7,8 C 7,2 C 97 % 992,0 hPa 0,0 l/m 0 min 0 min 0 W/m 0,0 km/h (0 Bft) 97,87 %
05.11.2019 00:12 9,1 C 7,8 C 7,2 C 97 % 992,0 hPa 0,0 l/m 0 min 0 min 0 W/m 3,2 km/h (1 Bft) 97,87 %
05.11.2019 00:14 9,1 C 7,8 C 7,2 C 97 % 992,0 hPa 0,0 l/m 0 min 0 min 0 W/m 6,4 km/h (2 Bft) 95,65 %
05.11.2019 00:16 9,1 C 7,8 C 7,2 C 97 % 992,0 hPa 0,0 l/m 0 min 0 min 0 W/m 3,2 km/h (1 Bft) 97,87 %
05.11.2019 00:18 9,1 C 7,8 C 7,2 C 97 % 992,1 hPa 0,0 l/m 0 min 0 min 0 W/m 0,0 km/h (0 Bft) 95,74 %
05.11.2019 00:20 9,1 C 7,8 C 7,2 C 97 % 992,1 hPa 0,0 l/m 0 min 0 min 0 W/m 0,0 km/h (0 Bft) 93,62 %
05.11.2019 00:22 9,1 C 7,8 C 7,2 C 97 % 992,1 hPa 0,0 l/m 0 min 0 min 0 W/m 0,0 km/h (0 Bft) 95,74 %
05.11.2019 00:24 9,1 C 7,8 C 7,2 C 97 % 992,1 hPa 0,0 l/m 0 min 0 min 0 W/m 6,4 km/h (2 Bft) 93,62 %
05.11.2019 00:26 9,1 C 7,8 C 7,2 C 97 % 992,1 hPa 0,0 l/m 0 min 0 min 0 W/m 6,4 km/h (2 Bft) 95,65 %
05.11.2019 00:28 9,1 C 7,8 C 7,2 C 97 % 992,1 hPa 0,0 l/m 0 min 0 min 0 W/m 6,4 km/h (2 Bft) 95,74 %
05.11.2019 00:30 9,1 C 7,8 C 7,2 C 97 % 992,1 hPa 0,0 l/m 0 min 0 min 0 W/m 0,0 km/h (0 Bft) 95,74 %
05.11.2019 00:32 9,1 C 7,8 C 7,2 C 97 % 992,1 hPa 0,0 l/m 0 min 0 min 0 W/m 3,2 km/h (1 Bft) 93,62 %
05.11.2019 00:34 9,1 C 7,8 C 7,2 C 97 % 992,1 hPa 0,0 l/m 0 min 0 min 0 W/m 6,4 km/h (2 Bft) 95,12 %
05.11.2019 00:36 9,1 C 7,8 C 7,2 C 97 % 992,2 hPa 0,0 l/m 0 min 0 min 0 W/m 6,4 km/h (2 Bft) 95,83 %
05.11.2019 00:38 9,1 C 7,8 C 7,2 C 97 % 992,2 hPa 0,0 l/m 0 min 0 min 0 W/m 3,2 km/h (1 Bft) 95,83 %
05.11.2019 00:40 9,1 C 7,8 C 7,2 C 97 % 992,2 hPa 0,0 l/m 0 min 0 min 0 W/m 6,4 km/h (2 Bft) 95,83 %
05.11.2019 00:42 9,1 C 7,8 C 7,2 C 97 % 992,2 hPa 0,0 l/m 0 min 0 min 0 W/m 0,0 km/h (0 Bft) 95,74 %
05.11.2019 00:44 9,0 C 7,8 C 7,2 C 97 % 992,3 hPa 0,0 l/m 0 min 0 min 0 W/m 0,0 km/h (0 Bft) 95,83 %
05.11.2019 00:46 9,0 C 7,8 C 7,2 C 97 % 992,3 hPa 0,0 l/m 0 min 0 min 0 W/m 0,0 km/h (0 Bft) 97,92 %
05.11.2019 00:48 9,0 C 7,8 C 7,2 C 97 % 992,3 hPa 0,0 l/m 0 min 2 min 0 W/m 0,0 km/h (0 Bft) 93,62 %
05.11.2019 00:50 9,0 C 7,8 C 7,2 C 97 % 992,4 hPa 0,0 l/m 0 min 0 min 0 W/m 3,2 km/h (1 Bft) 95,65 %
05.11.2019 00:52 9,0 C 7,8 C 7,2 C 97 % 992,4 hPa 0,0 l/m 0 min 0 min 0 W/m 0,0 km/h (0 Bft) 93,62 %
05.11.2019 00:54 9,0 C 7,8 C 7,2 C 97 % 992,4 hPa 0,0 l/m 0 min 0 min 0 W/m 6,4 km/h (2 Bft) 95,74 %
05.11.2019 00:56 9,0 C 7,8 C 7,2 C 97 % 992,4 hPa 0,0 l/m 0 min 0 min 0 W/m 3,2 km/h (1 Bft) 97,87 %
05.11.2019 00:58 9,0 C 7,8 C 7,2 C 97 % 992,4 hPa 0,0 l/m 0 min 0 min 0 W/m 0,0 km/h (0 Bft) 97,67 %
05.11.2019 01:00 9,0 C 7,8 C 7,2 C 97 % 992,4 hPa 0,0 l/m 0 min 0 min 0 W/m 6,4 km/h (2 Bft) 97,92 %
05.11.2019 01:02 9,0 C 7,8 C 7,2 C 97 % 992,5 hPa 0,0 l/m 0 min 0 min 0 W/m 0,0 km/h (0 Bft) 97,96 %
05.11.2019 01:04 8,9 C 7,8 C 7,2 C 97 % 992,5 hPa 0,0 l/m 0 min 0 min 0 W/m 0,0 km/h (0 Bft) 100,00 %
05.11.2019 01:06 8,9 C 7,8 C 7,2 C 97 % 992,5 hPa 0,0 l/m 0 min 0 min 0 W/m 6,4 km/h (2 Bft) 97,87 %
05.11.2019 01:08 8,9 C 7,8 C 7,2 C 97 % 992,6 hPa 0,0 l/m 0 min 0 min 0 W/m 6,4 km/h (2 Bft) 100,00 %
05.11.2019 01:10 8,9 C 7,8 C 7,2 C 97 % 992,6 hPa 0,0 l/m 0 min 0 min 0 W/m 0,0 km/h (0 Bft) 100,00 %
05.11.2019 01:12 8,9 C 7,8 C 7,2 C 97 % 992,7 hPa 0,0 l/m 0 min 0 min 0 W/m 3,2 km/h (1 Bft) 100,00 %
05.11.2019 01:14 8,9 C 7,8 C 7,2 C 97 % 992,7 hPa 0,0 l/m 0 min 0 min 0 W/m 3,2 km/h (1 Bft) 97,92 %
05.11.2019 01:16 8,9 C 7,8 C 7,2 C 97 % 992,7 hPa 0,0 l/m 0 min 0 min 0 W/m 3,2 km/h (1 Bft) 97,92 %
05.11.2019 01:18 8,9 C 7,8 C 7,2 C 97 % 992,7 hPa 0,0 l/m 0 min 0 min 0 W/m 0,0 km/h (0 Bft) 100,00 %
05.11.2019 01:20 8,9 C 7,8 C 7,2 C 97 % 992,7 hPa 0,0 l/m 0 min 0 min 0 W/m 12,9 km/h (3 Bft) 100,00 %
05.11.2019 01:22 8,9 C 7,8 C 7,2 C 97 % 992,7 hPa 0,0 l/m 0 min 0 min 0 W/m 12,9 km/h (3 Bft) 100,00 %
05.11.2019 01:24 8,9 C 7,8 C 7,2 C 97 % 992,8 hPa 0,0 l/m 0 min 0 min 0 W/m 6,4 km/h (2 Bft) 100,00 %
05.11.2019 01:26 8,9 C 7,8 C 7,2 C 97 % 992,8 hPa 0,0 l/m 0 min 0 min 0 W/m 12,9 km/h (3 Bft) 100,00 %
05.11.2019 01:28 8,9 C 7,8 C 7,2 C 97 % 992,8 hPa 0,0 l/m 0 min 0 min 0 W/m 6,4 km/h (2 Bft) 100,00 %
05.11.2019 01:30 8,9 C 7,8 C 7,2 C 97 % 992,8 hPa 0,0 l/m 0 min 0 min 0 W/m 6,4 km/h (2 Bft) 97,87 %
05.11.2019 01:32 8,8 C 7,8 C 7,2 C 97 % 992,8 hPa 0,0 l/m 0 min 0 min 0 W/m 6,4 km/h (2 Bft) 100,00 %
05.11.2019 01:34 8,8 C 7,8 C 7,2 C 97 % 992,8 hPa 0,0 l/m 0 min 0 min 0 W/m 6,4 km/h (2 Bft) 100,00 %
05.11.2019 01:36 8,8 C 7,8 C 7,2 C 97 % 992,8 hPa 0,0 l/m 0 min 0 min 0 W/m 6,4 km/h (2 Bft) 100,00 %
05.11.2019 01:38 8,8 C 7,8 C 7,2 C 97 % 992,8 hPa 0,0 l/m 0 min 0 min 0 W/m 16,1 km/h (3 Bft) 100,00 %
05.11.2019 01:40 8,8 C 7,8 C 7,2 C 97 % 992,8 hPa 0,0 l/m 0 min 0 min 0 W/m 12,9 km/h (3 Bft) 100,00 %
05.11.2019 01:42 8,9 C 8,3 C 7,2 C 97 % 992,9 hPa 0,0 l/m 0 min 0 min 0 W/m 12,9 km/h (3 Bft) 100,00 %
05.11.2019 01:44 8,9 C 8,3 C 7,2 C 97 % 992,9 hPa 0,0 l/m 0 min 0 min 0 W/m 12,9 km/h (3 Bft) 100,00 %
05.11.2019 01:46 8,9 C 8,3 C 7,2 C 97 % 992,9 hPa 0,0 l/m 0 min 0 min 0 W/m 12,9 km/h (3 Bft) 100,00 %
05.11.2019 01:48 8,9 C 8,3 C 7,2 C 97 % 992,9 hPa 0,0 l/m 0 min 0 min 0 W/m 6,4 km/h (2 Bft) 100,00 %
05.11.2019 01:50 8,9 C 8,3 C 7,2 C 97 % 992,9 hPa 0,0 l/m 0 min 0 min 0 W/m 6,4 km/h (2 Bft) 97,87 %
05.11.2019 01:52 8,9 C 8,3 C 7,2 C 97 % 992,9 hPa 0,0 l/m 0 min 0 min 0 W/m 6,4 km/h (2 Bft) 100,00 %
05.11.2019 01:54 8,9 C 8,3 C 7,2 C 97 % 992,9 hPa 0,0 l/m 0 min 0 min 0 W/m 12,9 km/h (3 Bft) 100,00 %
05.11.2019 01:56 8,9 C 8,3 C 7,2 C 97 % 992,9 hPa 0,0 l/m 0 min 0 min 0 W/m 12,9 km/h (3 Bft) 100,00 %
05.11.2019 01:58 8,9 C 8,3 C 7,2 C 97 % 993,0 hPa 0,0 l/m 0 min 0 min 0 W/m 12,9 km/h (3 Bft) 100,00 %
05.11.2019 02:00 8,9 C 8,3 C 7,2 C 97 % 992,9 hPa 0,0 l/m 0 min 0 min 0 W/m 3,2 km/h (1 Bft) 100,00 %
05.11.2019 02:02 8,9 C 8,3 C 7,2 C 97 % 992,9 hPa 0,0 l/m 0 min 0 min 0 W/m 6,4 km/h (2 Bft) 97,96 %
05.11.2019 02:04 8,9 C 8,3 C 7,2 C 97 % 993,0 hPa 0,0 l/m 0 min 0 min 0 W/m 6,4 km/h (2 Bft) 100,00 %
05.11.2019 02:06 8,9 C 8,3 C 7,2 C 97 % 993,0 hPa 0,0 l/m 0 min 0 min 0 W/m 3,2 km/h (1 Bft) 100,00 %
05.11.2019 02:08 9,0 C 8,3 C 7,2 C 97 % 993,0 hPa 0,0 l/m 0 min 0 min 0 W/m 6,4 km/h (2 Bft) 100,00 %
05.11.2019 02:10 8,9 C 8,3 C 7,2 C 97 % 993,0 hPa 0,0 l/m 0 min 0 min 0 W/m 12,9 km/h (3 Bft) 100,00 %
05.11.2019 02:12 9,0 C 7,8 C 7,2 C 97 % 993,0 hPa 0,0 l/m 0 min 2 min 0 W/m 12,9 km/h (3 Bft) 97,92 %
05.11.2019 02:14 9,0 C 7,8 C 7,2 C 97 % 993,0 hPa 0,0 l/m 0 min 0 min 0 W/m 6,4 km/h (2 Bft) 95,83 %
05.11.2019 02:16 9,0 C 8,3 C 7,2 C 97 % 993,0 hPa 0,0 l/m 0 min 0 min 0 W/m 16,1 km/h (3 Bft) 97,87 %
05.11.2019 02:18 9,0 C 8,3 C 7,2 C 97 % 993,1 hPa 0,0 l/m 0 min 0 min 0 W/m 12,9 km/h (3 Bft) 97,92 %
05.11.2019 02:20 9,0 C 8,3 C 7,2 C 97 % 993,0 hPa 0,0 l/m 0 min 0 min 0 W/m 3,2 km/h (1 Bft) 95,83 %
05.11.2019 02:22 9,0 C 8,3 C 7,2 C 97 % 993,1 hPa 0,0 l/m 0 min 0 min 0 W/m 3,2 km/h (1 Bft) 93,62 %
05.11.2019 02:24 9,0 C 8,3 C 7,2 C 97 % 993,0 hPa 0,0 l/m 0 min 0 min 0 W/m 3,2 km/h (1 Bft) 95,74 %
05.11.2019 02:26 9,0 C 8,3 C 7,2 C 97 % 993,0 hPa 0,0 l/m 0 min 0 min 0 W/m 6,4 km/h (2 Bft) 95,74 %
05.11.2019 02:28 9,1 C 8,3 C 7,2 C 97 % 993,1 hPa 0,0 l/m 0 min 0 min 0 W/m 12,9 km/h (3 Bft) 97,87 %
05.11.2019 02:30 9,1 C 8,3 C 7,2 C 97 % 993,1 hPa 0,0 l/m 0 min 0 min 0 W/m 16,1 km/h (3 Bft) 97,87 %
05.11.2019 02:32 9,1 C 8,3 C 7,2 C 97 % 993,1 hPa 0,0 l/m 0 min 0 min 0 W/m 12,9 km/h (3 Bft) 97,87 %
05.11.2019 02:34 9,1 C 8,3 C 7,8 C 97 % 993,2 hPa 0,0 l/m 0 min 2 min 0 W/m 6,4 km/h (2 Bft) 97,56 %
05.11.2019 02:36 9,1 C 8,3 C 7,2 C 97 % 993,2 hPa 0,0 l/m 0 min 2 min 0 W/m 16,1 km/h (3 Bft) 97,92 %
05.11.2019 02:38 9,1 C 8,3 C 7,8 C 97 % 993,2 hPa 0,0 l/m 0 min 2 min 0 W/m 16,1 km/h (3 Bft) 97,92 %
05.11.2019 02:40 9,1 C 8,3 C 7,2 C 97 % 993,2 hPa 0,0 l/m 0 min 2 min 0 W/m 16,1 km/h (3 Bft) 95,74 %
05.11.2019 02:42 9,1 C 8,3 C 7,8 C 97 % 993,2 hPa 0,0 l/m 0 min 2 min 0 W/m 3,2 km/h (1 Bft) 97,92 %
05.11.2019 02:44 9,1 C 8,3 C 7,8 C 97 % 993,2 hPa 0,0 l/m 0 min 0 min 0 W/m 0,0 km/h (0 Bft) 97,92 %
05.11.2019 02:46 9,1 C 8,3 C 7,8 C 97 % 993,2 hPa 0,0 l/m 0 min 0 min 0 W/m 6,4 km/h (2 Bft) 97,87 %
05.11.2019 02:48 9,1 C 8,3 C 7,8 C 97 % 993,2 hPa 0,0 l/m 0 min 0 min 0 W/m 3,2 km/h (1 Bft) 97,87 %
05.11.2019 02:50 9,1 C 8,3 C 7,8 C 97 % 993,2 hPa 0,0 l/m 0 min 0 min 0 W/m 12,9 km/h (3 Bft) 95,74 %
05.11.2019 02:52 9,1 C 8,3 C 7,8 C 97 % 993,2 hPa 0,0 l/m 0 min 0 min 0 W/m 12,9 km/h (3 Bft) 93,62 %
05.11.2019 02:54 9,2 C 8,3 C 7,8 C 97 % 993,2 hPa 0,0 l/m 0 min 0 min 0 W/m 3,2 km/h (1 Bft) 93,62 %
05.11.2019 02:56 9,2 C 8,3 C 7,8 C 97 % 993,2 hPa 0,0 l/m 0 min 0 min 0 W/m 12,9 km/h (3 Bft) 95,65 %
05.11.2019 02:58 9,2 C 8,3 C 7,8 C 97 % 993,3 hPa 0,0 l/m 0 min 0 min 0 W/m 3,2 km/h (1 Bft) 93,18 %
05.11.2019 03:00 9,2 C 8,3 C 7,8 C 97 % 993,3 hPa 0,0 l/m 0 min 0 min 0 W/m 3,2 km/h (1 Bft) 93,75 %
05.11.2019 03:02 9,2 C 8,3 C 7,8 C 97 % 993,3 hPa 0,0 l/m 0 min 0 min 0 W/m 6,4 km/h (2 Bft) 93,88 %
05.11.2019 03:04 9,2 C 8,3 C 7,8 C 97 % 993,3 hPa 0,0 l/m 0 min 0 min 0 W/m 12,9 km/h (3 Bft) 93,62 %
05.11.2019 03:06 9,2 C 8,3 C 7,8 C 97 % 993,3 hPa 0,0 l/m 0 min 0 min 0 W/m 12,9 km/h (3 Bft) 91,49 %
05.11.2019 03:08 9,2 C 8,3 C 7,8 C 97 % 993,4 hPa 0,0 l/m 0 min 0 min 0 W/m 3,2 km/h (1 Bft) 91,30 %
05.11.2019 03:10 9,2 C 8,3 C 7,8 C 97 % 993,4 hPa 0,0 l/m 0 min 0 min 0 W/m 6,4 km/h (2 Bft) 95,24 %
05.11.2019 03:12 9,2 C 8,3 C 7,8 C 97 % 993,4 hPa 0,0 l/m 0 min 0 min 0 W/m 6,4 km/h (2 Bft) 95,83 %
05.11.2019 03:14 9,2 C 8,3 C 7,8 C 97 % 993,4 hPa 0,0 l/m 0 min 0 min 0 W/m 19,3 km/h (3 Bft) 93,62 %
05.11.2019 03:16 9,2 C 8,3 C 7,8 C 97 % 993,4 hPa 0,0 l/m 0 min 0 min 0 W/m 19,3 km/h (3 Bft) 95,83 %
05.11.2019 03:18 9,2 C 8,3 C 7,8 C 97 % 993,4 hPa 0,0 l/m 0 min 0 min 0 W/m 6,4 km/h (2 Bft) 95,83 %
05.11.2019 03:20 9,2 C 8,3 C 7,8 C 97 % 993,4 hPa 0,0 l/m 0 min 0 min 0 W/m 6,4 km/h (2 Bft) 95,83 %
05.11.2019 03:22 9,2 C 8,3 C 7,8 C 97 % 993,5 hPa 0,0 l/m 0 min 0 min 0 W/m 6,4 km/h (2 Bft) 95,74 %
05.11.2019 03:24 9,2 C 8,3 C 7,8 C 97 % 993,5 hPa 0,0 l/m 0 min 2 min 0 W/m 12,9 km/h (3 Bft) 93,62 %
05.11.2019 03:26 9,2 C 8,3 C 7,8 C 97 % 993,5 hPa 0,2 l/m 0 min 2 min 0 W/m 3,2 km/h (1 Bft) 95,74 %
05.11.2019 03:28 9,2 C 8,3 C 7,8 C 97 % 993,4 hPa 0,0 l/m 0 min 2 min 0 W/m 0,0 km/h (0 Bft) 95,74 %
05.11.2019 03:30 9,2 C 8,3 C 7,8 C 97 % 993,4 hPa 0,0 l/m 0 min 0 min 0 W/m 3,2 km/h (1 Bft) 95,74 %
05.11.2019 03:32 9,2 C 8,3 C 7,8 C 97 % 993,4 hPa 0,0 l/m 0 min 2 min 0 W/m 3,2 km/h (1 Bft) 93,48 %
05.11.2019 03:34 9,2 C 8,3 C 7,8 C 97 % 993,5 hPa 0,0 l/m 0 min 2 min 0 W/m 6,4 km/h (2 Bft) 95,24 %
05.11.2019 03:36 9,2 C 7,8 C 7,8 C 97 % 993,5 hPa 0,0 l/m 0 min 2 min 0 W/m 6,4 km/h (2 Bft) 95,83 %
05.11.2019 03:38 9,2 C 7,8 C 7,8 C 97 % 993,5 hPa 0,0 l/m 0 min 0 min 0 W/m 3,2 km/h (1 Bft) 95,74 %
05.11.2019 03:40 9,2 C 7,8 C 7,8 C 97 % 993,5 hPa 0,0 l/m 0 min 0 min 0 W/m 3,2 km/h (1 Bft) 95,83 %
05.11.2019 03:42 9,2 C 7,8 C 7,8 C 97 % 993,5 hPa 0,0 l/m 0 min 0 min 0 W/m 16,1 km/h (3 Bft) 97,92 %
05.11.2019 03:44 9,2 C 7,8 C 7,8 C 97 % 993,5 hPa 0,0 l/m 0 min 0 min 0 W/m 6,4 km/h (2 Bft) 100,00 %
05.11.2019 03:46 9,2 C 7,8 C 7,8 C 97 % 993,5 hPa 0,0 l/m 0 min 0 min 0 W/m 6,4 km/h (2 Bft) 97,87 %
05.11.2019 03:48 9,2 C 8,3 C 7,8 C 97 % 993,5 hPa 0,0 l/m 0 min 0 min 0 W/m 12,9 km/h (3 Bft) 100,00 %
05.11.2019 03:50 9,2 C 8,3 C 7,8 C 97 % 993,5 hPa 0,0 l/m 0 min 0 min 0 W/m 6,4 km/h (2 Bft) 100,00 %
05.11.2019 03:52 9,2 C 8,3 C 7,8 C 97 % 993,5 hPa 0,0 l/m 0 min 0 min 0 W/m 16,1 km/h (3 Bft) 100,00 %
05.11.2019 03:54 9,2 C 8,3 C 7,8 C 97 % 993,6 hPa 0,0 l/m 0 min 0 min 0 W/m 16,1 km/h (3 Bft) 97,83 %
05.11.2019 03:56 9,2 C 8,3 C 7,8 C 97 % 993,6 hPa 0,0 l/m 0 min 0 min 0 W/m 6,4 km/h (2 Bft) 100,00 %
05.11.2019 03:58 9,2 C 8,3 C 7,8 C 97 % 993,6 hPa 0,0 l/m 0 min 0 min 0 W/m 12,9 km/h (3 Bft) 100,00 %
05.11.2019 04:00 9,2 C 8,3 C 7,8 C 97 % 993,6 hPa 0,0 l/m 0 min 0 min 0 W/m 12,9 km/h (3 Bft) 100,00 %
05.11.2019 04:02 9,2 C 8,3 C 7,8 C 97 % 993,6 hPa 0,0 l/m 0 min 0 min 0 W/m 0,0 km/h (0 Bft) 97,06 %
05.11.2019 04:04 9,2 C 8,3 C 7,8 C 97 % 993,6 hPa 0,0 l/m 0 min 0 min 0 W/m 3,2 km/h (1 Bft) 97,87 %
05.11.2019 04:06 9,2 C 8,3 C 7,8 C 97 % 993,6 hPa 0,0 l/m 0 min 0 min 0 W/m 3,2 km/h (1 Bft) 97,83 %
05.11.2019 04:08 9,2 C 8,3 C 7,8 C 97 % 993,7 hPa 0,0 l/m 0 min 0 min 0 W/m 3,2 km/h (1 Bft) 100,00 %
05.11.2019 04:10 9,2 C 7,8 C 7,8 C 97 % 993,7 hPa 0,0 l/m 0 min 0 min 0 W/m 0,0 km/h (0 Bft) 100,00 %
05.11.2019 04:12 9,2 C 7,8 C 7,8 C 97 % 993,6 hPa 0,0 l/m 0 min 0 min 0 W/m 3,2 km/h (1 Bft) 100,00 %
05.11.2019 04:14 9,2 C 7,8 C 7,8 C 97 % 993,7 hPa 0,0 l/m 0 min 0 min 0 W/m 12,9 km/h (3 Bft) 100,00 %
05.11.2019 04:16 9,2 C 7,8 C 7,8 C 97 % 993,7 hPa 0,0 l/m 0 min 0 min 0 W/m 16,1 km/h (3 Bft) 100,00 %
05.11.2019 04:18 9,2 C 7,8 C 7,8 C 97 % 993,7 hPa 0,0 l/m 0 min 0 min 0 W/m 12,9 km/h (3 Bft) 97,92 %
05.11.2019 04:20 9,2 C 8,3 C 7,8 C 97 % 993,7 hPa 0,0 l/m 0 min 0 min 0 W/m 12,9 km/h (3 Bft) 100,00 %
05.11.2019 04:22 9,2 C 8,3 C 7,8 C 97 % 993,7 hPa 0,0 l/m 0 min 0 min 0 W/m 3,2 km/h (1 Bft) 100,00 %
05.11.2019 04:24 9,2 C 8,3 C 7,8 C 97 % 993,7 hPa 0,0 l/m 0 min 0 min 0 W/m 6,4 km/h (2 Bft) 100,00 %
05.11.2019 04:26 9,2 C 8,3 C 7,8 C 97 % 993,7 hPa 0,0 l/m 0 min 0 min 0 W/m 6,4 km/h (2 Bft) 100,00 %
05.11.2019 04:28 9,2 C 8,3 C 7,8 C 97 % 993,7 hPa 0,0 l/m 0 min 0 min 0 W/m 6,4 km/h (2 Bft) 100,00 %
05.11.2019 04:30 9,2 C 8,3 C 7,8 C 97 % 993,7 hPa 0,0 l/m 0 min 0 min 0 W/m 12,9 km/h (3 Bft) 100,00 %
05.11.2019 04:32 9,2 C 8,3 C 7,8 C 97 % 993,7 hPa 0,0 l/m 0 min 0 min 0 W/m 3,2 km/h (1 Bft) 100,00 %
05.11.2019 04:34 9,2 C 8,3 C 7,8 C 97 % 993,8 hPa 0,0 l/m 0 min 0 min 0 W/m 12,9 km/h (3 Bft) 100,00 %
05.11.2019 04:36 9,2 C 8,3 C 7,8 C 97 % 993,8 hPa 0,0 l/m 0 min 0 min 0 W/m 12,9 km/h (3 Bft) 100,00 %
05.11.2019 04:38 9,1 C 8,3 C 7,2 C 97 % 993,8 hPa 0,0 l/m 0 min 0 min 0 W/m 3,2 km/h (1 Bft) 58,33 %
05.11.2019 04:40 9,1 C 7,8 C 7,2 C 97 % 993,8 hPa 0,0 l/m 0 min 0 min 0 W/m 12,9 km/h (3 Bft) 97,92 %
05.11.2019 04:42 9,1 C 7,8 C 7,2 C 97 % 993,8 hPa 0,0 l/m 0 min 0 min 0 W/m 3,2 km/h (1 Bft) 97,92 %
05.11.2019 04:44 9,1 C 7,8 C 7,2 C 97 % 993,8 hPa 0,0 l/m 0 min 0 min 0 W/m 6,4 km/h (2 Bft) 100,00 %
05.11.2019 04:46 9,1 C 7,8 C 7,2 C 97 % 993,8 hPa 0,0 l/m 0 min 0 min 0 W/m 6,4 km/h (2 Bft) 97,87 %
05.11.2019 04:48 9,1 C 7,8 C 7,2 C 97 % 993,8 hPa 0,0 l/m 0 min 0 min 0 W/m 16,1 km/h (3 Bft) 100,00 %
05.11.2019 04:50 9,1 C 8,3 C 7,2 C 97 % 993,8 hPa 0,0 l/m 0 min 0 min 0 W/m 6,4 km/h (2 Bft) 100,00 %
05.11.2019 04:52 9,1 C 7,8 C 7,2 C 97 % 993,9 hPa 0,0 l/m 0 min 0 min 0 W/m 6,4 km/h (2 Bft) 100,00 %
05.11.2019 04:54 9,1 C 7,8 C 7,2 C 97 % 993,9 hPa 0,0 l/m 0 min 0 min 0 W/m 6,4 km/h (2 Bft) 97,83 %
05.11.2019 04:56 9,1 C 7,8 C 7,2 C 97 % 993,9 hPa 0,0 l/m 0 min 0 min 0 W/m 6,4 km/h (2 Bft) 100,00 %
05.11.2019 04:58 9,1 C 7,8 C 7,2 C 97 % 993,9 hPa 0,0 l/m 0 min 0 min 0 W/m 16,1 km/h (3 Bft) 100,00 %
05.11.2019 05:00 9,1 C 7,8 C 7,2 C 97 % 993,9 hPa 0,0 l/m 0 min 0 min 0 W/m 12,9 km/h (3 Bft) 97,92 %
05.11.2019 05:02 9,1 C 7,8 C 7,2 C 97 % 994,0 hPa 0,0 l/m 0 min 0 min 0 W/m 12,9 km/h (3 Bft) 98,00 %
05.11.2019 05:04 9,1 C 7,8 C 7,2 C 97 % 994,0 hPa 0,0 l/m 0 min 0 min 0 W/m 6,4 km/h (2 Bft) 100,00 %
05.11.2019 05:06 9,0 C 8,3 C 7,2 C 97 % 994,0 hPa 0,0 l/m 0 min 0 min 0 W/m 12,9 km/h (3 Bft) 100,00 %
05.11.2019 05:08 9,1 C 8,3 C 7,2 C 97 % 994,0 hPa 0,0 l/m 0 min 0 min 0 W/m 9,7 km/h (2 Bft) 100,00 %
05.11.2019 05:10 9,0 C 8,3 C 7,2 C 97 % 994,0 hPa 0,0 l/m 0 min 0 min 0 W/m 16,1 km/h (3 Bft) 100,00 %
05.11.2019 05:12 9,0 C 8,3 C 7,2 C 97 % 994,0 hPa 0,0 l/m 0 min 0 min 0 W/m 16,1 km/h (3 Bft) 100,00 %
05.11.2019 05:14 9,0 C 8,3 C 7,2 C 97 % 994,0 hPa 0,0 l/m 0 min 0 min 0 W/m 16,1 km/h (3 Bft) 100,00 %
05.11.2019 05:16 9,0 C 8,3 C 7,2 C 97 % 994,0 hPa 0,0 l/m 0 min 0 min 0 W/m 16,1 km/h (3 Bft) 100,00 %
05.11.2019 05:18 9,0 C 8,3 C 7,2 C 97 % 994,0 hPa 0,0 l/m 0 min 0 min 0 W/m 6,4 km/h (2 Bft) 97,62 %
05.11.2019 05:20 9,0 C 8,3 C 7,2 C 97 % 994,1 hPa 0,0 l/m 0 min 0 min 0 W/m 3,2 km/h (1 Bft) 100,00 %
05.11.2019 05:22 9,0 C 8,3 C 7,2 C 97 % 994,1 hPa 0,0 l/m 0 min 0 min 0 W/m 6,4 km/h (2 Bft) 97,87 %
05.11.2019 05:24 9,0 C 8,3 C 7,2 C 97 % 994,1 hPa 0,0 l/m 0 min 0 min 0 W/m 12,9 km/h (3 Bft) 100,00 %
05.11.2019 05:26 9,0 C 8,3 C 7,2 C 97 % 994,1 hPa 0,0 l/m 0 min 0 min 0 W/m 12,9 km/h (3 Bft) 97,92 %
05.11.2019 05:28 8,9 C 8,3 C 7,2 C 97 % 994,1 hPa 0,0 l/m 0 min 0 min 0 W/m 12,9 km/h (3 Bft) 95,83 %
05.11.2019 05:30 8,9 C 8,3 C 7,2 C 97 % 994,1 hPa 0,0 l/m 0 min 0 min 0 W/m 16,1 km/h (3 Bft) 97,87 %
05.11.2019 05:32 8,9 C 8,3 C 7,2 C 97 % 994,2 hPa 0,0 l/m 0 min 0 min 0 W/m 12,9 km/h (3 Bft) 97,87 %
05.11.2019 05:34 8,9 C 8,3 C 7,2 C 97 % 994,2 hPa 0,0 l/m 0 min 0 min 0 W/m 12,9 km/h (3 Bft) 95,74 %
05.11.2019 05:36 8,9 C 8,3 C 7,2 C 97 % 994,3 hPa 0,0 l/m 0 min 0 min 0 W/m 16,1 km/h (3 Bft) 93,62 %
05.11.2019 05:38 8,9 C 8,3 C 7,2 C 97 % 994,2 hPa 0,0 l/m 0 min 0 min 0 W/m 6,4 km/h (2 Bft) 95,74 %
05.11.2019 05:40 8,9 C 8,3 C 7,2 C 97 % 994,3 hPa 0,0 l/m 0 min 0 min 0 W/m 19,3 km/h (3 Bft) 95,12 %
05.11.2019 05:42 8,9 C 8,3 C 7,2 C 97 % 994,2 hPa 0,0 l/m 0 min 0 min 0 W/m 12,9 km/h (3 Bft) 93,75 %
05.11.2019 05:44 8,9 C 8,3 C 7,2 C 97 % 994,2 hPa 0,0 l/m 0 min 0 min 0 W/m 16,1 km/h (3 Bft) 91,67 %
05.11.2019 05:46 8,9 C 8,3 C 7,2 C 97 % 994,2 hPa 0,0 l/m 0 min 2 min 0 W/m 12,9 km/h (3 Bft) 93,62 %
05.11.2019 05:48 8,8 C 8,3 C 7,2 C 97 % 994,2 hPa 0,0 l/m 0 min 2 min 0 W/m 16,1 km/h (3 Bft) 93,75 %
05.11.2019 05:50 8,8 C 7,8 C 7,2 C 97 % 994,2 hPa 0,0 l/m 0 min 2 min 0 W/m 16,1 km/h (3 Bft) 93,75 %
05.11.2019 05:52 8,8 C 7,8 C 7,2 C 97 % 994,3 hPa 0,0 l/m 0 min 2 min 0 W/m 6,4 km/h (2 Bft) 91,49 %
05.11.2019 05:54 8,8 C 7,8 C 7,2 C 97 % 994,2 hPa 0,0 l/m 0 min 2 min 0 W/m 12,9 km/h (3 Bft) 93,62 %
05.11.2019 05:56 8,8 C 7,8 C 7,2 C 97 % 994,3 hPa 0,0 l/m 0 min 2 min 0 W/m 6,4 km/h (2 Bft) 93,62 %
05.11.2019 05:58 8,8 C 7,8 C 7,2 C 97 % 994,3 hPa 0,0 l/m 0 min 2 min 0 W/m 19,3 km/h (3 Bft) 93,62 %
05.11.2019 06:00 8,8 C 7,8 C 7,2 C 97 % 994,3 hPa 0,0 l/m 0 min 2 min 0 W/m 19,3 km/h (3 Bft) 92,68 %
05.11.2019 06:02 8,8 C 7,2 C 7,2 C 97 % 994,4 hPa 0,0 l/m 0 min 2 min 0 W/m 19,3 km/h (3 Bft) 90,00 %
05.11.2019 06:04 8,8 C 7,2 C 7,2 C 97 % 994,3 hPa 0,0 l/m 0 min 2 min 0 W/m 19,3 km/h (3 Bft) 93,88 %
05.11.2019 06:08 8,8 C 7,2 C 7,2 C 97 % 994,3 hPa 0,2 l/m 0 min 4 min 0 W/m 16,1 km/h (3 Bft) 93,62 %
05.11.2019 06:10 8,8 C 7,2 C 7,2 C 97 % 994,4 hPa 0,0 l/m 0 min 2 min 0 W/m 12,9 km/h (3 Bft) 93,62 %
05.11.2019 06:12 8,8 C 7,2 C 7,2 C 97 % 994,4 hPa 0,0 l/m 0 min 2 min 0 W/m 12,9 km/h (3 Bft) 95,74 %
05.11.2019 06:14 8,8 C 7,2 C 7,2 C 97 % 994,4 hPa 0,0 l/m 0 min 0 min 0 W/m 6,4 km/h (2 Bft) 91,30 %
05.11.2019 06:16 8,8 C 7,2 C 7,2 C 97 % 994,4 hPa 0,0 l/m 0 min 0 min 0 W/m 9,7 km/h (2 Bft) 95,74 %
05.11.2019 06:18 8,8 C 7,2 C 7,2 C 97 % 994,5 hPa 0,0 l/m 0 min 0 min 0 W/m 6,4 km/h (2 Bft) 95,24 %
05.11.2019 06:20 8,8 C 7,2 C 7,2 C 97 % 994,5 hPa 0,0 l/m 0 min 0 min 0 W/m 6,4 km/h (2 Bft) 95,74 %
05.11.2019 06:22 8,7 C 7,2 C 7,2 C 97 % 994,5 hPa 0,0 l/m 0 min 0 min 0 W/m 6,4 km/h (2 Bft) 93,75 %
05.11.2019 06:24 8,7 C 7,2 C 7,2 C 97 % 994,5 hPa 0,0 l/m 0 min 2 min 0 W/m 6,4 km/h (2 Bft) 59,57 %
05.11.2019 06:26 8,7 C 7,2 C 7,2 C 97 % 994,5 hPa 0,0 l/m 0 min 0 min 0 W/m 6,4 km/h (2 Bft) 91,67 %
05.11.2019 06:28 8,7 C 7,2 C 7,2 C 97 % 994,5 hPa 0,0 l/m 0 min 0 min 0 W/m 0,0 km/h (0 Bft) 93,75 %
05.11.2019 06:30 8,7 C 7,2 C 7,2 C 97 % 994,5 hPa 0,0 l/m 0 min 0 min 0 W/m 6,4 km/h (2 Bft) 97,87 %
05.11.2019 06:32 8,7 C 7,2 C 7,2 C 97 % 994,5 hPa 0,0 l/m 0 min 0 min 0 W/m 3,2 km/h (1 Bft) 93,62 %
05.11.2019 06:34 8,7 C 7,2 C 7,2 C 97 % 994,5 hPa 0,0 l/m 0 min 0 min 0 W/m 6,4 km/h (2 Bft) 97,87 %
05.11.2019 06:36 8,7 C 7,2 C 7,2 C 97 % 994,5 hPa 0,0 l/m 0 min 0 min 0 W/m 3,2 km/h (1 Bft) 100,00 %
05.11.2019 06:38 8,7 C 7,2 C 7,2 C 97 % 994,6 hPa 0,0 l/m 0 min 0 min 0 W/m 12,9 km/h (3 Bft) 100,00 %
05.11.2019 06:40 8,7 C 7,2 C 7,2 C 97 % 994,5 hPa 0,0 l/m 0 min 0 min 0 W/m 0,0 km/h (0 Bft) 100,00 %
05.11.2019 06:42 8,7 C 7,2 C 7,2 C 97 % 994,6 hPa 0,0 l/m 0 min 0 min 0 W/m 0,0 km/h (0 Bft) 100,00 %
05.11.2019 06:44 8,7 C 7,2 C 7,2 C 97 % 994,6 hPa 0,0 l/m 0 min 0 min 0 W/m 3,2 km/h (1 Bft) 97,87 %
05.11.2019 06:46 8,7 C 7,2 C 7,2 C 97 % 994,6 hPa 0,0 l/m 0 min 0 min 0 W/m 3,2 km/h (1 Bft) 100,00 %
05.11.2019 06:48 8,7 C 7,2 C 7,2 C 97 % 994,6 hPa 0,0 l/m 0 min 0 min 0 W/m 3,2 km/h (1 Bft) 100,00 %
05.11.2019 06:50 8,7 C 7,2 C 7,2 C 97 % 994,6 hPa 0,0 l/m 0 min 0 min 0 W/m 0,0 km/h (0 Bft) 97,92 %
05.11.2019 06:52 8,7 C 7,2 C 7,2 C 97 % 994,6 hPa 0,0 l/m 0 min 0 min 0 W/m 6,4 km/h (2 Bft) 100,00 %
05.11.2019 06:54 8,7 C 7,2 C 7,2 C 97 % 994,6 hPa 0,0 l/m 0 min 0 min 0 W/m 3,2 km/h (1 Bft) 100,00 %
05.11.2019 06:56 8,7 C 7,2 C 7,2 C 97 % 994,6 hPa 0,0 l/m 0 min 0 min 0 W/m 3,2 km/h (1 Bft) 100,00 %
05.11.2019 06:58 8,7 C 7,2 C 7,2 C 97 % 994,6 hPa 0,0 l/m 0 min 0 min 0 W/m 0,0 km/h (0 Bft) 100,00 %
05.11.2019 07:00 8,6 C 7,2 C 7,2 C 97 % 994,7 hPa 0,0 l/m 0 min 0 min 0 W/m 6,4 km/h (2 Bft) 100,00 %
05.11.2019 07:02 8,6 C 7,2 C 7,2 C 97 % 994,7 hPa 0,0 l/m 0 min 0 min 0 W/m 0,0 km/h (0 Bft) 100,00 %
05.11.2019 07:04 8,6 C 7,2 C 7,2 C 97 % 994,7 hPa 0,0 l/m 0 min 0 min 0 W/m 6,4 km/h (2 Bft) 100,00 %
05.11.2019 07:06 8,6 C 7,2 C 7,2 C 97 % 994,7 hPa 0,0 l/m 0 min 0 min 0 W/m 3,2 km/h (1 Bft) 97,87 %
05.11.2019 07:08 8,6 C 7,2 C 7,2 C 97 % 994,8 hPa 0,0 l/m 0 min 0 min 0 W/m 3,2 km/h (1 Bft) 100,00 %
05.11.2019 07:10 8,6 C 7,2 C 7,2 C 97 % 994,8 hPa 0,0 l/m 0 min 0 min 0 W/m 0,0 km/h (0 Bft) 97,87 %
05.11.2019 07:12 8,6 C 7,2 C 7,2 C 97 % 994,8 hPa 0,0 l/m 0 min 2 min 0 W/m 0,0 km/h (0 Bft) 100,00 %
05.11.2019 07:14 8,6 C 7,2 C 7,2 C 97 % 994,8 hPa 0,0 l/m 0 min 2 min 0 W/m 0,0 km/h (0 Bft) 100,00 %
05.11.2019 07:16 8,6 C 7,2 C 7,2 C 97 % 994,8 hPa 0,0 l/m 0 min 2 min 0 W/m 3,2 km/h (1 Bft) 100,00 %
05.11.2019 07:18 8,6 C 7,2 C 7,2 C 97 % 994,9 hPa 0,0 l/m 0 min 0 min 0 W/m 3,2 km/h (1 Bft) 100,00 %
05.11.2019 07:20 8,6 C 7,2 C 7,2 C 97 % 994,9 hPa 0,0 l/m 0 min 0 min 0 W/m 0,0 km/h (0 Bft) 100,00 %
05.11.2019 07:22 8,6 C 7,2 C 7,2 C 97 % 994,9 hPa 0,0 l/m 0 min 0 min 0 W/m 0,0 km/h (0 Bft) 100,00 %
05.11.2019 07:24 8,6 C 7,2 C 7,2 C 97 % 994,9 hPa 0,0 l/m 0 min 0 min 0 W/m 3,2 km/h (1 Bft) 100,00 %
05.11.2019 07:26 8,6 C 7,2 C 7,2 C 97 % 994,9 hPa 0,0 l/m 0 min 0 min 0 W/m 0,0 km/h (0 Bft) 100,00 %
05.11.2019 07:28 8,6 C 7,2 C 7,2 C 97 % 994,9 hPa 0,0 l/m 0 min 0 min 0 W/m 12,9 km/h (3 Bft) 100,00 %
05.11.2019 07:30 8,6 C 7,2 C 7,2 C 98 % 995,0 hPa 0,0 l/m 0 min 0 min 0 W/m 0,0 km/h (0 Bft) 100,00 %
05.11.2019 07:32 8,6 C 7,2 C 7,2 C 98 % 995,0 hPa 0,0 l/m 0 min 0 min 0 W/m 3,2 km/h (1 Bft) 100,00 %
05.11.2019 07:34 8,6 C 7,2 C 7,2 C 98 % 995,0 hPa 0,0 l/m 0 min 0 min 0 W/m 6,4 km/h (2 Bft) 100,00 %
05.11.2019 07:36 8,6 C 7,2 C 7,2 C 98 % 995,0 hPa 0,0 l/m 0 min 0 min 0 W/m 3,2 km/h (1 Bft) 100,00 %
05.11.2019 07:38 8,6 C 7,2 C 7,2 C 98 % 995,0 hPa 0,0 l/m 0 min 0 min 0 W/m 3,2 km/h (1 Bft) 100,00 %
05.11.2019 07:40 8,6 C 7,2 C 7,2 C 98 % 995,1 hPa 0,0 l/m 0 min 0 min 0 W/m 0,0 km/h (0 Bft) 97,87 %
05.11.2019 07:42 8,6 C 7,2 C 7,2 C 98 % 995,1 hPa 0,0 l/m 0 min 0 min 0 W/m 3,2 km/h (1 Bft) 100,00 %
05.11.2019 07:44 8,6 C 7,2 C 7,2 C 98 % 995,0 hPa 0,0 l/m 0 min 0 min 0 W/m 0,0 km/h (0 Bft) 100,00 %
05.11.2019 07:46 8,6 C 7,2 C 7,2 C 98 % 995,1 hPa 0,0 l/m 0 min 0 min 0 W/m 12,9 km/h (3 Bft) 100,00 %
05.11.2019 07:48 8,6 C 7,8 C 7,2 C 98 % 995,1 hPa 0,0 l/m 0 min 0 min 0 W/m 3,2 km/h (1 Bft) 97,92 %
05.11.2019 07:50 8,6 C 7,8 C 7,2 C 98 % 995,2 hPa 0,0 l/m 0 min 0 min 0 W/m 0,0 km/h (0 Bft) 100,00 %
05.11.2019 07:52 8,6 C 7,8 C 7,2 C 98 % 995,2 hPa 0,0 l/m 0 min 0 min 4 W/m 6,4 km/h (2 Bft) 100,00 %
05.11.2019 07:54 8,6 C 7,8 C 7,2 C 98 % 995,2 hPa 0,0 l/m 0 min 0 min 5 W/m 0,0 km/h (0 Bft) 100,00 %
05.11.2019 07:56 8,6 C 7,8 C 7,2 C 98 % 995,3 hPa 0,0 l/m 0 min 0 min 5 W/m 3,2 km/h (1 Bft) 100,00 %
05.11.2019 07:58 8,6 C 7,8 C 7,2 C 98 % 995,3 hPa 0,0 l/m 0 min 0 min 5 W/m 3,2 km/h (1 Bft) 97,87 %
05.11.2019 08:00 8,6 C 7,8 C 7,2 C 98 % 995,3 hPa 0,0 l/m 0 min 2 min 5 W/m 6,4 km/h (2 Bft) 100,00 %
05.11.2019 08:02 8,6 C 7,8 C 7,2 C 98 % 995,4 hPa 0,0 l/m 0 min 0 min 5 W/m 6,4 km/h (2 Bft) 95,74 %
05.11.2019 08:04 8,6 C 7,8 C 7,2 C 98 % 995,5 hPa 0,0 l/m 0 min 0 min 7 W/m 3,2 km/h (1 Bft) 97,67 %
05.11.2019 08:06 8,6 C 7,8 C 7,2 C 98 % 995,5 hPa 0,0 l/m 0 min 0 min 7 W/m 0,0 km/h (0 Bft) 41,18 %
05.11.2019 08:08 8,6 C 7,8 C 7,2 C 98 % 995,5 hPa 0,0 l/m 0 min 0 min 9 W/m 6,4 km/h (2 Bft) 96,88 %
05.11.2019 08:10 8,6 C 7,8 C 7,2 C 98 % 995,5 hPa 0,0 l/m 0 min 0 min 11 W/m 12,9 km/h (3 Bft) 97,92 %
05.11.2019 08:12 8,6 C 7,8 C 7,2 C 98 % 995,5 hPa 0,0 l/m 0 min 0 min 12 W/m 3,2 km/h (1 Bft) 97,87 %
05.11.2019 08:14 8,6 C 7,8 C 7,2 C 98 % 995,6 hPa 0,0 l/m 0 min 0 min 14 W/m 3,2 km/h (1 Bft) 97,87 %
05.11.2019 08:16 8,6 C 7,8 C 7,2 C 98 % 995,5 hPa 0,0 l/m 0 min 0 min 15 W/m 6,4 km/h (2 Bft) 97,87 %
05.11.2019 08:18 8,6 C 7,8 C 7,2 C 98 % 995,6 hPa 0,0 l/m 0 min 0 min 16 W/m 3,2 km/h (1 Bft) 97,87 %
05.11.2019 08:20 8,7 C 7,8 C 7,2 C 98 % 995,6 hPa 0,0 l/m 0 min 0 min 17 W/m 3,2 km/h (1 Bft) 95,74 %
05.11.2019 08:22 8,7 C 7,8 C 7,2 C 98 % 995,6 hPa 0,0 l/m 0 min 0 min 19 W/m 3,2 km/h (1 Bft) 95,65 %
05.11.2019 08:24 8,7 C 7,8 C 7,2 C 98 % 995,6 hPa 0,0 l/m 0 min 0 min 21 W/m 12,9 km/h (3 Bft) 97,62 %
05.11.2019 08:26 8,7 C 7,8 C 7,2 C 98 % 995,7 hPa 0,0 l/m 0 min 0 min 24 W/m 3,2 km/h (1 Bft) 97,92 %
05.11.2019 08:28 8,7 C 7,8 C 7,2 C 98 % 995,7 hPa 0,0 l/m 0 min 0 min 25 W/m 16,1 km/h (3 Bft) 97,87 %
05.11.2019 08:30 8,7 C 7,8 C 7,2 C 98 % 995,7 hPa 0,0 l/m 0 min 0 min 29 W/m 3,2 km/h (1 Bft) 97,92 %
05.11.2019 08:32 8,7 C 7,8 C 7,2 C 98 % 995,8 hPa 0,0 l/m 0 min 2 min 33 W/m 6,4 km/h (2 Bft) 93,75 %
05.11.2019 08:34 8,7 C 7,8 C 7,2 C 98 % 995,7 hPa 0,0 l/m 0 min 0 min 35 W/m 16,1 km/h (3 Bft) 97,92 %
05.11.2019 08:36 8,7 C 7,8 C 7,2 C 98 % 995,8 hPa 0,0 l/m 0 min 2 min 38 W/m 3,2 km/h (1 Bft) 97,87 %
05.11.2019 08:38 8,7 C 7,8 C 7,2 C 98 % 995,8 hPa 0,0 l/m 0 min 2 min 40 W/m 6,4 km/h (2 Bft) 93,62 %
05.11.2019 08:40 8,8 C 7,8 C 7,2 C 98 % 995,8 hPa 0,0 l/m 0 min 2 min 42 W/m 3,2 km/h (1 Bft) 95,74 %
05.11.2019 08:42 8,8 C 7,8 C 7,8 C 98 % 995,9 hPa 0,0 l/m 0 min 2 min 45 W/m 6,4 km/h (2 Bft) 95,74 %
05.11.2019 08:44 8,8 C 7,8 C 7,2 C 98 % 995,9 hPa 0,0 l/m 0 min 2 min 47 W/m 6,4 km/h (2 Bft) 95,74 %
05.11.2019 08:46 8,8 C 7,8 C 7,2 C 98 % 995,9 hPa 0,0 l/m 0 min 2 min 51 W/m 3,2 km/h (1 Bft) 97,83 %
05.11.2019 08:48 8,8 C 7,8 C 7,2 C 98 % 995,9 hPa 0,0 l/m 0 min 2 min 54 W/m 6,4 km/h (2 Bft) 97,62 %
05.11.2019 08:50 8,8 C 7,8 C 7,8 C 98 % 995,9 hPa 0,0 l/m 0 min 2 min 58 W/m 3,2 km/h (1 Bft) 97,92 %
05.11.2019 08:52 8,8 C 7,8 C 7,8 C 98 % 995,9 hPa 0,0 l/m 0 min 2 min 60 W/m 3,2 km/h (1 Bft) 93,62 %
05.11.2019 08:54 8,8 C 7,8 C 7,8 C 98 % 995,9 hPa 0,0 l/m 0 min 2 min 57 W/m 6,4 km/h (2 Bft) 95,83 %
05.11.2019 08:56 8,9 C 7,8 C 7,8 C 98 % 996,0 hPa 0,0 l/m 0 min 2 min 52 W/m 9,7 km/h (2 Bft) 95,83 %
05.11.2019 08:58 8,9 C 7,8 C 7,8 C 98 % 995,9 hPa 0,0 l/m 0 min 2 min 47 W/m 0,0 km/h (0 Bft) 95,83 %
05.11.2019 09:00 8,9 C 7,8 C 7,8 C 98 % 996,0 hPa 0,0 l/m 0 min 2 min 46 W/m 3,2 km/h (1 Bft) 93,62 %
05.11.2019 09:02 8,9 C 7,8 C 7,8 C 98 % 996,0 hPa 0,0 l/m 0 min 2 min 47 W/m 3,2 km/h (1 Bft) 95,74 %
05.11.2019 09:04 8,9 C 7,8 C 7,8 C 98 % 996,0 hPa 0,2 l/m 0 min 2 min 50 W/m 3,2 km/h (1 Bft) 95,35 %
05.11.2019 09:06 8,9 C 7,8 C 7,8 C 98 % 996,0 hPa 0,0 l/m 0 min 2 min 52 W/m 6,4 km/h (2 Bft) 95,83 %
05.11.2019 09:08 8,9 C 7,8 C 7,8 C 98 % 996,1 hPa 0,0 l/m 0 min 2 min 56 W/m 6,4 km/h (2 Bft) 95,83 %
05.11.2019 09:10 8,9 C 7,8 C 7,8 C 98 % 996,1 hPa 0,0 l/m 0 min 2 min 61 W/m 3,2 km/h (1 Bft) 93,75 %
05.11.2019 09:12 8,9 C 7,8 C 7,8 C 98 % 996,1 hPa 0,0 l/m 0 min 2 min 64 W/m 3,2 km/h (1 Bft) 95,74 %
05.11.2019 09:14 9,0 C 7,8 C 7,8 C 98 % 996,0 hPa 0,0 l/m 0 min 2 min 67 W/m 3,2 km/h (1 Bft) 93,62 %
05.11.2019 09:16 9,0 C 7,8 C 7,8 C 98 % 996,1 hPa 0,0 l/m 0 min 2 min 70 W/m 6,4 km/h (2 Bft) 95,74 %
05.11.2019 09:18 9,0 C 7,8 C 7,8 C 98 % 996,1 hPa 0,0 l/m 0 min 2 min 72 W/m 12,9 km/h (3 Bft) 95,74 %
05.11.2019 09:20 9,0 C 8,3 C 7,8 C 98 % 996,1 hPa 0,0 l/m 0 min 2 min 74 W/m 3,2 km/h (1 Bft) 93,48 %
05.11.2019 09:22 9,0 C 8,3 C 7,8 C 98 % 996,1 hPa 0,0 l/m 0 min 2 min 76 W/m 3,2 km/h (1 Bft) 93,62 %
05.11.2019 09:24 9,0 C 8,3 C 7,8 C 98 % 996,2 hPa 0,0 l/m 0 min 2 min 74 W/m 3,2 km/h (1 Bft) 97,62 %
05.11.2019 09:26 9,0 C 7,8 C 7,8 C 98 % 996,2 hPa 0,0 l/m 0 min 2 min 70 W/m 16,1 km/h (3 Bft) 91,30 %
05.11.2019 09:28 9,0 C 7,8 C 7,8 C 98 % 996,2 hPa 0,0 l/m 0 min 2 min 70 W/m 12,9 km/h (3 Bft) 93,75 %
05.11.2019 09:30 9,1 C 8,3 C 7,8 C 98 % 996,2 hPa 0,0 l/m 0 min 2 min 69 W/m 12,9 km/h (3 Bft) 95,83 %
05.11.2019 09:32 9,1 C 8,3 C 7,8 C 98 % 996,3 hPa 0,0 l/m 0 min 2 min 69 W/m 12,9 km/h (3 Bft) 97,92 %
05.11.2019 09:34 9,1 C 8,3 C 7,8 C 98 % 996,3 hPa 0,0 l/m 0 min 0 min 69 W/m 3,2 km/h (1 Bft) 97,92 %
05.11.2019 09:36 9,1 C 8,3 C 7,8 C 98 % 996,3 hPa 0,0 l/m 0 min 0 min 69 W/m 12,9 km/h (3 Bft) 95,65 %
05.11.2019 09:38 9,1 C 8,3 C 7,8 C 98 % 996,3 hPa 0,0 l/m 0 min 0 min 69 W/m 6,4 km/h (2 Bft) 97,87 %
05.11.2019 09:40 9,1 C 8,3 C 7,8 C 98 % 996,3 hPa 0,0 l/m 0 min 0 min 69 W/m 3,2 km/h (1 Bft) 97,92 %
05.11.2019 09:42 9,1 C 8,3 C 7,8 C 98 % 996,3 hPa 0,0 l/m 0 min 0 min 69 W/m 6,4 km/h (2 Bft) 97,92 %
05.11.2019 09:44 9,1 C 8,3 C 7,8 C 98 % 996,4 hPa 0,0 l/m 0 min 0 min 67 W/m 3,2 km/h (1 Bft) 97,83 %
05.11.2019 09:46 9,1 C 8,3 C 7,8 C 98 % 996,4 hPa 0,0 l/m 0 min 0 min 65 W/m 6,4 km/h (2 Bft) 100,00 %
05.11.2019 09:48 9,1 C 8,3 C 7,8 C 98 % 996,4 hPa 0,0 l/m 0 min 0 min 63 W/m 12,9 km/h (3 Bft) 100,00 %
05.11.2019 09:50 9,1 C 8,3 C 7,8 C 98 % 996,4 hPa 0,0 l/m 0 min 2 min 62 W/m 19,3 km/h (3 Bft) 100,00 %
05.11.2019 09:52 9,1 C 8,3 C 7,8 C 98 % 996,4 hPa 0,0 l/m 0 min 2 min 61 W/m 12,9 km/h (3 Bft) 100,00 %
05.11.2019 09:54 9,1 C 8,3 C 7,8 C 98 % 996,4 hPa 0,0 l/m 0 min 2 min 60 W/m 12,9 km/h (3 Bft) 100,00 %
05.11.2019 09:56 9,2 C 8,3 C 7,8 C 98 % 996,4 hPa 0,0 l/m 0 min 2 min 58 W/m 3,2 km/h (1 Bft) 100,00 %
05.11.2019 09:58 9,1 C 8,3 C 7,8 C 98 % 996,5 hPa 0,0 l/m 0 min 2 min 58 W/m 6,4 km/h (2 Bft) 100,00 %
05.11.2019 10:00 9,2 C 8,3 C 7,8 C 98 % 996,5 hPa 0,0 l/m 0 min 2 min 61 W/m 6,4 km/h (2 Bft) 100,00 %
05.11.2019 10:02 9,1 C 8,3 C 7,8 C 98 % 996,5 hPa 0,0 l/m 0 min 0 min 62 W/m 6,4 km/h (2 Bft) 97,92 %
05.11.2019 10:04 9,1 C 8,3 C 7,8 C 98 % 996,5 hPa 0,0 l/m 0 min 0 min 65 W/m 6,4 km/h (2 Bft) 97,87 %
05.11.2019 10:06 9,2 C 8,3 C 7,8 C 98 % 996,5 hPa 0,0 l/m 0 min 0 min 68 W/m 0,0 km/h (0 Bft) 100,00 %
05.11.2019 10:08 9,2 C 8,3 C 7,8 C 98 % 996,5 hPa 0,0 l/m 0 min 0 min 71 W/m 3,2 km/h (1 Bft) 100,00 %
05.11.2019 10:10 9,2 C 8,3 C 7,8 C 98 % 996,6 hPa 0,0 l/m 0 min 0 min 72 W/m 0,0 km/h (0 Bft) 100,00 %
05.11.2019 10:12 9,2 C 8,3 C 7,8 C 98 % 996,6 hPa 0,0 l/m 0 min 2 min 72 W/m 6,4 km/h (2 Bft) 100,00 %
05.11.2019 10:14 9,2 C 8,3 C 7,8 C 98 % 996,6 hPa 0,0 l/m 0 min 0 min 70 W/m 6,4 km/h (2 Bft) 97,92 %
05.11.2019 10:16 9,2 C 8,3 C 7,8 C 98 % 996,6 hPa 0,0 l/m 0 min 2 min 68 W/m 6,4 km/h (2 Bft) 100,00 %
05.11.2019 10:18 9,2 C 8,3 C 7,8 C 98 % 996,7 hPa 0,0 l/m 0 min 2 min 68 W/m 12,9 km/h (3 Bft) 100,00 %
05.11.2019 10:20 9,2 C 8,3 C 7,8 C 98 % 996,7 hPa 0,0 l/m 0 min 2 min 69 W/m 12,9 km/h (3 Bft) 100,00 %
05.11.2019 10:22 9,2 C 8,3 C 7,8 C 98 % 996,7 hPa 0,0 l/m 0 min 2 min 73 W/m 19,3 km/h (3 Bft) 100,00 %
05.11.2019 10:24 9,2 C 8,3 C 7,8 C 97 % 996,7 hPa 0,0 l/m 0 min 2 min 77 W/m 3,2 km/h (1 Bft) 100,00 %
05.11.2019 10:26 9,2 C 8,3 C 7,8 C 97 % 996,7 hPa 0,0 l/m 0 min 2 min 77 W/m 16,1 km/h (3 Bft) 100,00 %
05.11.2019 10:28 9,2 C 8,3 C 7,8 C 97 % 996,9 hPa 0,0 l/m 0 min 2 min 73 W/m 16,1 km/h (3 Bft) 100,00 %
05.11.2019 10:30 9,2 C 8,3 C 7,8 C 97 % 996,9 hPa 0,0 l/m 0 min 2 min 66 W/m 12,9 km/h (3 Bft) 100,00 %
05.11.2019 10:32 9,2 C 8,3 C 7,8 C 97 % 996,9 hPa 0,0 l/m 0 min 2 min 61 W/m 6,4 km/h (2 Bft) 100,00 %
05.11.2019 10:34 9,2 C 8,3 C 7,8 C 97 % 996,9 hPa 0,0 l/m 0 min 2 min 60 W/m 6,4 km/h (2 Bft) 97,92 %
05.11.2019 10:36 9,2 C 8,3 C 7,8 C 97 % 996,9 hPa 0,0 l/m 0 min 2 min 64 W/m 6,4 km/h (2 Bft) 100,00 %
05.11.2019 10:38 9,3 C 8,3 C 7,8 C 97 % 996,9 hPa 0,0 l/m 0 min 2 min 71 W/m 6,4 km/h (2 Bft) 95,83 %
05.11.2019 10:40 9,3 C 8,3 C 7,8 C 97 % 996,9 hPa 0,0 l/m 0 min 2 min 75 W/m 6,4 km/h (2 Bft) 95,83 %
05.11.2019 10:42 9,2 C 8,3 C 7,8 C 97 % 996,9 hPa 0,0 l/m 0 min 2 min 76 W/m 16,1 km/h (3 Bft) 97,87 %
05.11.2019 10:44 9,2 C 8,3 C 7,8 C 97 % 997,0 hPa 0,0 l/m 0 min 2 min 79 W/m 12,9 km/h (3 Bft) 97,87 %
05.11.2019 10:46 9,2 C 8,3 C 7,8 C 97 % 996,9 hPa 0,0 l/m 0 min 2 min 84 W/m 6,4 km/h (2 Bft) 97,87 %
05.11.2019 10:48 9,3 C 8,3 C 7,8 C 97 % 997,0 hPa 0,0 l/m 0 min 2 min 86 W/m 0,0 km/h (0 Bft) 97,87 %
05.11.2019 10:50 9,3 C 8,3 C 7,8 C 97 % 997,0 hPa 0,0 l/m 0 min 2 min 86 W/m 6,4 km/h (2 Bft) 97,87 %
05.11.2019 10:52 9,3 C 8,3 C 7,8 C 97 % 997,0 hPa 0,0 l/m 0 min 0 min 86 W/m 6,4 km/h (2 Bft) 97,87 %
05.11.2019 10:54 9,3 C 8,3 C 7,8 C 97 % 997,0 hPa 0,0 l/m 0 min 2 min 82 W/m 6,4 km/h (2 Bft) 97,56 %
05.11.2019 10:56 9,3 C 8,3 C 7,8 C 97 % 997,0 hPa 0,0 l/m 0 min 2 min 74 W/m 6,4 km/h (2 Bft) 97,92 %
05.11.2019 10:58 9,3 C 8,3 C 7,8 C 97 % 997,0 hPa 0,0 l/m 0 min 2 min 65 W/m 3,2 km/h (1 Bft) 95,92 %
05.11.2019 11:00 9,3 C 8,3 C 7,8 C 97 % 997,0 hPa 0,0 l/m 0 min 2 min 55 W/m 12,9 km/h (3 Bft) 97,92 %
05.11.2019 11:02 9,3 C 8,3 C 7,8 C 97 % 997,0 hPa 0,0 l/m 0 min 2 min 47 W/m 6,4 km/h (2 Bft) 97,92 %
05.11.2019 11:04 9,3 C 8,3 C 7,8 C 97 % 997,0 hPa 0,0 l/m 0 min 2 min 43 W/m 0,0 km/h (0 Bft) 97,83 %
05.11.2019 11:06 9,3 C 8,3 C 7,8 C 97 % 997,1 hPa 0,0 l/m 0 min 2 min 43 W/m 3,2 km/h (1 Bft) 95,24 %
05.11.2019 11:08 9,3 C 8,3 C 7,8 C 97 % 997,1 hPa 0,0 l/m 0 min 2 min 45 W/m 6,4 km/h (2 Bft) 97,92 %
05.11.2019 11:10 9,3 C 7,8 C 7,8 C 96 % 997,0 hPa 0,0 l/m 0 min 2 min 49 W/m 6,4 km/h (2 Bft) 97,87 %
05.11.2019 11:12 9,3 C 7,8 C 7,8 C 96 % 997,1 hPa 0,2 l/m 0 min 2 min 52 W/m 12,9 km/h (3 Bft) 95,83 %
05.11.2019 11:14 9,3 C 8,3 C 7,8 C 96 % 997,1 hPa 0,0 l/m 0 min 2 min 57 W/m 3,2 km/h (1 Bft) 91,67 %
05.11.2019 11:16 9,3 C 8,3 C 7,8 C 96 % 997,1 hPa 0,0 l/m 0 min 2 min 62 W/m 3,2 km/h (1 Bft) 97,92 %
05.11.2019 11:18 9,3 C 7,8 C 7,8 C 96 % 997,1 hPa 0,0 l/m 0 min 2 min 67 W/m 12,9 km/h (3 Bft) 97,87 %
05.11.2019 11:20 9,3 C 7,8 C 7,8 C 96 % 997,1 hPa 0,0 l/m 0 min 2 min 73 W/m 12,9 km/h (3 Bft) 100,00 %
05.11.2019 11:22 9,3 C 8,3 C 7,8 C 96 % 997,2 hPa 0,0 l/m 0 min 2 min 77 W/m 6,4 km/h (2 Bft) 100,00 %
05.11.2019 11:24 9,3 C 8,3 C 7,8 C 96 % 997,2 hPa 0,0 l/m 0 min 2 min 80 W/m 6,4 km/h (2 Bft) 97,87 %
05.11.2019 11:26 9,3 C 8,3 C 7,8 C 96 % 997,2 hPa 0,0 l/m 0 min 2 min 87 W/m 12,9 km/h (3 Bft) 97,87 %
05.11.2019 11:28 9,3 C 8,3 C 7,8 C 96 % 997,2 hPa 0,0 l/m 0 min 0 min 98 W/m 3,2 km/h (1 Bft) 100,00 %
05.11.2019 11:30 9,4 C 8,3 C 7,8 C 96 % 997,2 hPa 0,0 l/m 0 min 0 min 114 W/m 3,2 km/h (1 Bft) 100,00 %
05.11.2019 11:32 9,4 C 8,3 C 7,8 C 96 % 997,2 hPa 0,0 l/m 0 min 0 min 124 W/m 6,4 km/h (2 Bft) 95,24 %
05.11.2019 11:34 9,4 C 8,9 C 7,8 C 96 % 997,2 hPa 0,0 l/m 0 min 0 min 127 W/m 3,2 km/h (1 Bft) 100,00 %
05.11.2019 11:36 9,4 C 8,9 C 8,3 C 96 % 997,2 hPa 0,0 l/m 0 min 0 min 130 W/m 6,4 km/h (2 Bft) 97,92 %
05.11.2019 11:38 9,4 C 8,9 C 8,3 C 96 % 997,3 hPa 0,0 l/m 0 min 0 min 143 W/m 0,0 km/h (0 Bft) 100,00 %
05.11.2019 11:40 9,5 C 9,4 C 8,3 C 96 % 997,2 hPa 0,0 l/m 0 min 0 min 146 W/m 0,0 km/h (0 Bft) 97,92 %
05.11.2019 11:42 9,5 C 9,4 C 8,3 C 97 % 997,2 hPa 0,0 l/m 0 min 0 min 158 W/m 6,4 km/h (2 Bft) 97,92 %
05.11.2019 11:44 9,6 C 9,4 C 8,3 C 97 % 997,3 hPa 0,0 l/m 2 min 0 min 197 W/m 6,4 km/h (2 Bft) 95,74 %
05.11.2019 11:46 9,6 C 10,0 C 8,9 C 97 % 997,3 hPa 0,0 l/m 2 min 0 min 212 W/m 3,2 km/h (1 Bft) 97,87 %
05.11.2019 11:48 9,6 C 10,0 C 8,9 C 97 % 997,3 hPa 0,0 l/m 2 min 0 min 246 W/m 6,4 km/h (2 Bft) 91,49 %
05.11.2019 11:50 9,7 C 10,0 C 8,9 C 97 % 997,3 hPa 0,0 l/m 2 min 0 min 242 W/m 6,4 km/h (2 Bft) 97,87 %
05.11.2019 11:52 9,7 C 10,0 C 8,9 C 96 % 997,3 hPa 0,0 l/m 2 min 0 min 214 W/m 6,4 km/h (2 Bft) 97,83 %
05.11.2019 11:54 9,7 C 10,6 C 8,9 C 97 % 997,3 hPa 0,0 l/m 2 min 0 min 218 W/m 0,0 km/h (0 Bft) 97,87 %
05.11.2019 11:56 9,8 C 10,6 C 8,9 C 97 % 997,3 hPa 0,0 l/m 2 min 0 min 223 W/m 6,4 km/h (2 Bft) 95,24 %
05.11.2019 11:58 9,9 C 10,0 C 8,9 C 97 % 997,3 hPa 0,0 l/m 2 min 0 min 200 W/m 3,2 km/h (1 Bft) 95,92 %
05.11.2019 12:00 9,9 C 10,0 C 8,9 C 97 % 997,3 hPa 0,0 l/m 0 min 0 min 138 W/m 9,7 km/h (2 Bft) 97,92 %
05.11.2019 12:02 9,9 C 9,4 C 8,9 C 97 % 997,3 hPa 0,0 l/m 0 min 0 min 111 W/m 12,9 km/h (3 Bft) 95,83 %
05.11.2019 12:04 10,0 C 9,4 C 8,3 C 96 % 997,3 hPa 0,0 l/m 0 min 0 min 105 W/m 16,1 km/h (3 Bft) 95,74 %
05.11.2019 12:08 10,0 C 9,4 C 8,3 C 96 % 997,3 hPa 0,0 l/m 0 min 0 min 105 W/m 25,7 km/h (4 Bft) 95,51 %
05.11.2019 12:10 10,0 C 9,4 C 8,3 C 96 % 997,3 hPa 0,0 l/m 0 min 2 min 112 W/m 6,4 km/h (2 Bft) 95,74 %
05.11.2019 12:12 10,0 C 9,4 C 8,9 C 96 % 997,3 hPa 0,0 l/m 0 min 0 min 112 W/m 3,2 km/h (1 Bft) 95,83 %
05.11.2019 12:14 10,0 C 9,4 C 8,9 C 96 % 997,4 hPa 0,0 l/m 0 min 0 min 115 W/m 16,1 km/h (3 Bft) 95,83 %
05.11.2019 12:16 10,0 C 9,4 C 8,9 C 95 % 997,3 hPa 0,0 l/m 0 min 0 min 122 W/m 3,2 km/h (1 Bft) 93,75 %
05.11.2019 12:18 10,1 C 9,4 C 8,9 C 95 % 997,4 hPa 0,0 l/m 0 min 0 min 122 W/m 3,2 km/h (1 Bft) 97,92 %
05.11.2019 12:23 10,1 C 10,0 C 8,9 C 95 % 997,3 hPa 0,0 l/m 0 min 0 min 113 W/m 3,2 km/h (1 Bft) 97,06 %
05.11.2019 12:24 10,1 C 10,0 C 8,9 C 95 % 997,3 hPa 0,0 l/m 0 min 0 min 112 W/m 0,0 km/h (0 Bft) 95,83 %
05.11.2019 12:26 10,1 C 9,4 C 8,9 C 95 % 997,4 hPa 0,0 l/m 0 min 0 min 104 W/m 6,4 km/h (2 Bft) 93,48 %
05.11.2019 12:28 10,2 C 9,4 C 8,9 C 95 % 997,3 hPa 0,0 l/m 0 min 0 min 80 W/m 6,4 km/h (2 Bft) 93,62 %
05.11.2019 12:30 10,2 C 9,4 C 8,9 C 95 % 997,3 hPa 0,0 l/m 0 min 0 min 74 W/m 3,2 km/h (1 Bft) 95,74 %
05.11.2019 12:32 10,2 C 9,4 C 8,9 C 95 % 997,4 hPa 0,0 l/m 0 min 0 min 76 W/m 6,4 km/h (2 Bft) 95,74 %
05.11.2019 12:34 10,2 C 9,4 C 8,9 C 95 % 997,4 hPa 0,0 l/m 0 min 0 min 77 W/m 3,2 km/h (1 Bft) 97,87 %
05.11.2019 12:36 10,2 C 9,4 C 8,9 C 95 % 997,4 hPa 0,0 l/m 0 min 0 min 75 W/m 3,2 km/h (1 Bft) 97,87 %
05.11.2019 12:38 10,2 C 9,4 C 8,3 C 95 % 997,4 hPa 0,0 l/m 0 min 0 min 66 W/m 6,4 km/h (2 Bft) 97,83 %
05.11.2019 12:40 10,2 C 9,4 C 8,3 C 94 % 997,4 hPa 0,0 l/m 0 min 0 min 71 W/m 6,4 km/h (2 Bft) 97,87 %
05.11.2019 12:42 10,2 C 9,4 C 8,3 C 95 % 997,3 hPa 0,0 l/m 0 min 0 min 70 W/m 0,0 km/h (0 Bft) 97,87 %
05.11.2019 12:44 10,2 C 9,4 C 8,9 C 94 % 997,4 hPa 0,0 l/m 0 min 0 min 76 W/m 0,0 km/h (0 Bft) 97,87 %
05.11.2019 12:46 10,2 C 9,4 C 8,9 C 94 % 997,4 hPa 0,0 l/m 0 min 0 min 82 W/m 6,4 km/h (2 Bft) 97,87 %
05.11.2019 12:48 10,2 C 9,4 C 8,9 C 94 % 997,4 hPa 0,0 l/m 0 min 0 min 79 W/m 0,0 km/h (0 Bft) 97,87 %
05.11.2019 12:50 10,3 C 9,4 C 8,9 C 94 % 997,4 hPa 0,0 l/m 0 min 0 min 82 W/m 3,2 km/h (1 Bft) 95,65 %
05.11.2019 12:52 10,3 C 9,4 C 8,9 C 94 % 997,4 hPa 0,0 l/m 0 min 0 min 80 W/m 3,2 km/h (1 Bft) 97,87 %
05.11.2019 12:54 10,3 C 9,4 C 8,9 C 94 % 997,4 hPa 0,0 l/m 0 min 0 min 77 W/m 3,2 km/h (1 Bft) 100,00 %
05.11.2019 12:56 10,3 C 9,4 C 8,9 C 94 % 997,4 hPa 0,0 l/m 0 min 0 min 74 W/m 0,0 km/h (0 Bft) 100,00 %
05.11.2019 12:58 10,3 C 9,4 C 8,9 C 94 % 997,4 hPa 0,0 l/m 0 min 0 min 68 W/m 0,0 km/h (0 Bft) 100,00 %
05.11.2019 13:00 10,3 C 9,4 C 8,9 C 94 % 997,4 hPa 0,0 l/m 0 min 0 min 62 W/m 3,2 km/h (1 Bft) 100,00 %
05.11.2019 13:02 10,4 C 9,4 C 8,9 C 94 % 997,4 hPa 0,0 l/m 0 min 0 min 58 W/m 3,2 km/h (1 Bft) 100,00 %
05.11.2019 13:04 10,4 C 9,4 C 8,9 C 94 % 997,4 hPa 0,0 l/m 0 min 0 min 55 W/m 0,0 km/h (0 Bft) 97,87 %
05.11.2019 13:06 10,4 C 9,4 C 8,9 C 94 % 997,4 hPa 0,0 l/m 0 min 0 min 53 W/m 6,4 km/h (2 Bft) 93,62 %
05.11.2019 13:08 10,4 C 9,4 C 8,9 C 94 % 997,4 hPa 0,0 l/m 0 min 0 min 47 W/m 0,0 km/h (0 Bft) 97,87 %
05.11.2019 13:10 10,4 C 9,4 C 8,9 C 94 % 997,4 hPa 0,0 l/m 0 min 0 min 40 W/m 0,0 km/h (0 Bft) 97,87 %
05.11.2019 13:12 10,4 C 9,4 C 8,9 C 93 % 997,4 hPa 0,0 l/m 0 min 0 min 41 W/m 0,0 km/h (0 Bft) 97,83 %
05.11.2019 13:14 10,4 C 9,4 C 8,9 C 94 % 997,4 hPa 0,0 l/m 0 min 0 min 45 W/m 0,0 km/h (0 Bft) 95,74 %
05.11.2019 13:16 10,4 C 9,4 C 8,9 C 94 % 997,4 hPa 0,0 l/m 0 min 0 min 45 W/m 3,2 km/h (1 Bft) 97,87 %
05.11.2019 13:18 10,4 C 9,4 C 8,9 C 94 % 997,4 hPa 0,0 l/m 0 min 0 min 49 W/m 0,0 km/h (0 Bft) 97,87 %
05.11.2019 13:20 10,4 C 9,4 C 8,9 C 93 % 997,4 hPa 0,0 l/m 0 min 0 min 63 W/m 0,0 km/h (0 Bft) 97,87 %
05.11.2019 13:22 10,4 C 9,4 C 8,9 C 93 % 997,4 hPa 0,0 l/m 0 min 0 min 79 W/m 0,0 km/h (0 Bft) 97,87 %
05.11.2019 13:24 10,4 C 9,4 C 8,9 C 93 % 997,4 hPa 0,0 l/m 0 min 0 min 86 W/m 0,0 km/h (0 Bft) 95,65 %
05.11.2019 13:26 10,5 C 10,0 C 8,9 C 93 % 997,4 hPa 0,0 l/m 0 min 0 min 82 W/m 0,0 km/h (0 Bft) 97,87 %
05.11.2019 13:28 10,5 C 10,0 C 8,9 C 93 % 997,4 hPa 0,0 l/m 0 min 0 min 74 W/m 0,0 km/h (0 Bft) 97,87 %
05.11.2019 13:30 10,5 C 10,0 C 8,9 C 93 % 997,4 hPa 0,0 l/m 0 min 0 min 72 W/m 0,0 km/h (0 Bft) 97,87 %
05.11.2019 13:32 10,5 C 10,0 C 8,9 C 93 % 997,4 hPa 0,0 l/m 0 min 0 min 70 W/m 0,0 km/h (0 Bft) 95,74 %
05.11.2019 13:34 10,5 C 10,0 C 8,9 C 93 % 997,4 hPa 0,0 l/m 0 min 0 min 71 W/m 0,0 km/h (0 Bft) 97,87 %
05.11.2019 13:36 10,6 C 10,0 C 8,9 C 93 % 997,4 hPa 0,0 l/m 0 min 0 min 74 W/m 3,2 km/h (1 Bft) 97,83 %
05.11.2019 13:38 10,6 C 10,0 C 8,9 C 93 % 997,4 hPa 0,0 l/m 0 min 0 min 67 W/m 0,0 km/h (0 Bft) 97,87 %
05.11.2019 13:40 10,6 C 10,0 C 8,9 C 93 % 997,4 hPa 0,0 l/m 0 min 0 min 63 W/m 0,0 km/h (0 Bft) 97,87 %
05.11.2019 13:42 10,6 C 10,0 C 8,9 C 93 % 997,4 hPa 0,0 l/m 0 min 0 min 63 W/m 0,0 km/h (0 Bft) 97,87 %
05.11.2019 13:44 10,6 C 10,0 C 8,9 C 93 % 997,4 hPa 0,0 l/m 0 min 0 min 64 W/m 0,0 km/h (0 Bft) 97,87 %
05.11.2019 13:46 10,6 C 10,0 C 8,9 C 93 % 997,4 hPa 0,0 l/m 0 min 0 min 70 W/m 3,2 km/h (1 Bft) 97,87 %
05.11.2019 13:48 10,6 C 10,0 C 8,9 C 93 % 997,4 hPa 0,0 l/m 0 min 0 min 73 W/m 3,2 km/h (1 Bft) 97,83 %
05.11.2019 13:50 10,6 C 10,0 C 8,9 C 93 % 997,4 hPa 0,0 l/m 0 min 0 min 73 W/m 0,0 km/h (0 Bft) 100,00 %
05.11.2019 13:52 10,7 C 10,0 C 8,9 C 93 % 997,4 hPa 0,0 l/m 0 min 0 min 68 W/m 0,0 km/h (0 Bft) 97,87 %
05.11.2019 13:54 10,7 C 10,0 C 8,9 C 93 % 997,4 hPa 0,0 l/m 0 min 0 min 63 W/m 3,2 km/h (1 Bft) 100,00 %
05.11.2019 13:56 10,7 C 10,0 C 8,9 C 93 % 997,4 hPa 0,0 l/m 0 min 0 min 62 W/m 0,0 km/h (0 Bft) 97,87 %
05.11.2019 13:58 10,7 C 10,0 C 8,9 C 93 % 997,4 hPa 0,0 l/m 0 min 0 min 64 W/m 0,0 km/h (0 Bft) 100,00 %
05.11.2019 14:00 10,7 C 10,0 C 8,9 C 93 % 997,4 hPa 0,0 l/m 0 min 0 min 70 W/m 0,0 km/h (0 Bft) 100,00 %
05.11.2019 14:02 10,7 C 10,0 C 8,9 C 93 % 997,4 hPa 0,0 l/m 0 min 0 min 72 W/m 0,0 km/h (0 Bft) 100,00 %
05.11.2019 14:04 10,8 C 10,0 C 8,9 C 93 % 997,4 hPa 0,0 l/m 0 min 0 min 74 W/m 0,0 km/h (0 Bft) 100,00 %
05.11.2019 14:06 10,8 C 10,0 C 8,9 C 93 % 997,4 hPa 0,0 l/m 0 min 0 min 73 W/m 0,0 km/h (0 Bft) 97,87 %
05.11.2019 14:08 10,8 C 10,0 C 8,9 C 93 % 997,3 hPa 0,0 l/m 0 min 0 min 76 W/m 3,2 km/h (1 Bft) 97,87 %
05.11.2019 14:10 10,8 C 10,0 C 8,9 C 93 % 997,3 hPa 0,0 l/m 0 min 0 min 78 W/m 0,0 km/h (0 Bft) 100,00 %
05.11.2019 14:12 10,7 C 10,0 C 8,9 C 94 % 997,3 hPa 0,0 l/m 0 min 0 min 83 W/m 3,2 km/h (1 Bft) 100,00 %
05.11.2019 14:14 10,7 C 10,0 C 8,9 C 93 % 997,3 hPa 0,0 l/m 0 min 0 min 87 W/m 0,0 km/h (0 Bft) 100,00 %
05.11.2019 14:16 10,7 C 10,0 C 8,9 C 93 % 997,3 hPa 0,0 l/m 0 min 0 min 92 W/m 0,0 km/h (0 Bft) 100,00 %
05.11.2019 14:18 10,7 C 10,0 C 8,9 C 93 % 997,3 hPa 0,0 l/m 0 min 0 min 96 W/m 0,0 km/h (0 Bft) 97,87 %
05.11.2019 14:20 10,7 C 10,0 C 8,9 C 93 % 997,3 hPa 0,0 l/m 0 min 0 min 98 W/m 9,7 km/h (2 Bft) 100,00 %
05.11.2019 14:22 10,7 C 10,0 C 8,9 C 93 % 997,3 hPa 0,0 l/m 0 min 0 min 98 W/m 3,2 km/h (1 Bft) 100,00 %
05.11.2019 14:24 10,7 C 10,0 C 8,9 C 93 % 997,3 hPa 0,0 l/m 0 min 0 min 98 W/m 3,2 km/h (1 Bft) 100,00 %
05.11.2019 14:26 10,7 C 10,0 C 8,9 C 93 % 997,3 hPa 0,0 l/m 0 min 0 min 97 W/m 3,2 km/h (1 Bft) 100,00 %
05.11.2019 14:28 10,7 C 10,0 C 8,9 C 93 % 997,3 hPa 0,0 l/m 0 min 0 min 96 W/m 3,2 km/h (1 Bft) 100,00 %
05.11.2019 14:30 10,7 C 10,0 C 8,9 C 93 % 997,3 hPa 0,0 l/m 0 min 0 min 95 W/m 0,0 km/h (0 Bft) 100,00 %
05.11.2019 14:32 10,7 C 10,0 C 8,9 C 93 % 997,3 hPa 0,0 l/m 0 min 0 min 93 W/m 0,0 km/h (0 Bft) 100,00 %
05.11.2019 14:34 10,7 C 10,0 C 8,9 C 93 % 997,3 hPa 0,0 l/m 0 min 0 min 93 W/m 6,4 km/h (2 Bft) 100,00 %
05.11.2019 14:36 10,7 C 10,0 C 8,9 C 93 % 997,3 hPa 0,0 l/m 0 min 0 min 93 W/m 3,2 km/h (1 Bft) 100,00 %
05.11.2019 14:38 10,6 C 10,0 C 8,9 C 92 % 997,3 hPa 0,0 l/m 0 min 0 min 93 W/m 9,7 km/h (2 Bft) 100,00 %
05.11.2019 14:40 10,6 C 10,0 C 8,9 C 92 % 997,3 hPa 0,0 l/m 0 min 0 min 92 W/m 6,4 km/h (2 Bft) 100,00 %
05.11.2019 14:42 10,6 C 10,0 C 8,9 C 92 % 997,3 hPa 0,0 l/m 0 min 0 min 90 W/m 0,0 km/h (0 Bft) 97,87 %
05.11.2019 14:44 10,6 C 10,0 C 8,9 C 92 % 997,2 hPa 0,0 l/m 0 min 0 min 85 W/m 0,0 km/h (0 Bft) 100,00 %
05.11.2019 14:46 10,6 C 10,0 C 8,9 C 92 % 997,2 hPa 0,0 l/m 0 min 0 min 81 W/m 6,4 km/h (2 Bft) 100,00 %
05.11.2019 14:48 10,6 C 10,0 C 8,9 C 92 % 997,3 hPa 0,0 l/m 0 min 0 min 78 W/m 0,0 km/h (0 Bft) 100,00 %
05.11.2019 14:50 10,6 C 10,0 C 8,9 C 92 % 997,3 hPa 0,0 l/m 0 min 0 min 75 W/m 3,2 km/h (1 Bft) 97,87 %
05.11.2019 14:52 10,6 C 9,4 C 8,9 C 92 % 997,2 hPa 0,0 l/m 0 min 0 min 72 W/m 3,2 km/h (1 Bft) 97,87 %
05.11.2019 14:54 10,6 C 9,4 C 8,9 C 92 % 997,3 hPa 0,0 l/m 0 min 0 min 70 W/m 0,0 km/h (0 Bft) 100,00 %
05.11.2019 14:56 10,6 C 9,4 C 8,9 C 92 % 997,3 hPa 0,0 l/m 0 min 0 min 69 W/m 0,0 km/h (0 Bft) 97,87 %
05.11.2019 14:58 10,6 C 9,4 C 8,9 C 92 % 997,3 hPa 0,0 l/m 0 min 0 min 69 W/m 0,0 km/h (0 Bft) 97,83 %
05.11.2019 15:00 10,6 C 9,4 C 8,9 C 92 % 997,3 hPa 0,0 l/m 0 min 0 min 69 W/m 6,4 km/h (2 Bft) 95,74 %
05.11.2019 15:02 10,6 C 9,4 C 8,9 C 92 % 997,3 hPa 0,0 l/m 0 min 0 min 69 W/m 3,2 km/h (1 Bft) 93,62 %
05.11.2019 15:04 10,6 C 9,4 C 8,9 C 92 % 997,2 hPa 0,0 l/m 0 min 0 min 69 W/m 0,0 km/h (0 Bft) 95,74 %
05.11.2019 15:06 10,6 C 10,0 C 8,9 C 92 % 997,2 hPa 0,0 l/m 0 min 0 min 70 W/m 0,0 km/h (0 Bft) 95,74 %
05.11.2019 15:08 10,6 C 10,0 C 8,9 C 92 % 997,2 hPa 0,0 l/m 0 min 0 min 72 W/m 0,0 km/h (0 Bft) 95,65 %
05.11.2019 15:10 10,6 C 10,0 C 8,9 C 92 % 997,2 hPa 0,0 l/m 0 min 0 min 75 W/m 0,0 km/h (0 Bft) 95,74 %
05.11.2019 15:12 10,6 C 10,0 C 8,9 C 92 % 997,3 hPa 0,0 l/m 0 min 0 min 78 W/m 0,0 km/h (0 Bft) 95,74 %
05.11.2019 15:14 10,6 C 10,0 C 8,9 C 92 % 997,3 hPa 0,0 l/m 0 min 0 min 79 W/m 0,0 km/h (0 Bft) 93,62 %
05.11.2019 15:16 10,6 C 10,0 C 8,3 C 92 % 997,3 hPa 0,0 l/m 0 min 0 min 79 W/m 0,0 km/h (0 Bft) 95,74 %
05.11.2019 15:18 10,6 C 10,0 C 8,3 C 92 % 997,3 hPa 0,0 l/m 0 min 0 min 81 W/m 0,0 km/h (0 Bft) 95,74 %
05.11.2019 15:20 10,6 C 10,0 C 8,3 C 92 % 997,4 hPa 0,0 l/m 0 min 0 min 81 W/m 0,0 km/h (0 Bft) 93,48 %
05.11.2019 15:22 10,6 C 10,0 C 8,9 C 92 % 997,4 hPa 0,0 l/m 0 min 0 min 79 W/m 0,0 km/h (0 Bft) 93,62 %
05.11.2019 15:24 10,6 C 10,0 C 8,9 C 92 % 997,4 hPa 0,0 l/m 0 min 0 min 77 W/m 0,0 km/h (0 Bft) 95,74 %
05.11.2019 15:26 10,6 C 10,0 C 8,9 C 92 % 997,5 hPa 0,0 l/m 0 min 0 min 76 W/m 0,0 km/h (0 Bft) 95,74 %
05.11.2019 15:28 10,6 C 10,0 C 8,9 C 92 % 997,4 hPa 0,0 l/m 0 min 0 min 76 W/m 0,0 km/h (0 Bft) 95,74 %
05.11.2019 15:30 10,6 C 10,0 C 8,9 C 92 % 997,5 hPa 0,0 l/m 0 min 0 min 72 W/m 0,0 km/h (0 Bft) 93,62 %
05.11.2019 15:32 10,6 C 10,0 C 8,9 C 92 % 997,5 hPa 0,0 l/m 0 min 0 min 70 W/m 0,0 km/h (0 Bft) 95,65 %
05.11.2019 15:34 10,6 C 10,0 C 8,9 C 92 % 997,5 hPa 0,0 l/m 0 min 0 min 69 W/m 0,0 km/h (0 Bft) 91,49 %
05.11.2019 15:36 10,6 C 10,0 C 8,9 C 92 % 997,5 hPa 0,0 l/m 0 min 0 min 67 W/m 0,0 km/h (0 Bft) 93,62 %
05.11.2019 15:38 10,5 C 10,0 C 8,9 C 92 % 997,5 hPa 0,0 l/m 0 min 0 min 65 W/m 0,0 km/h (0 Bft) 93,62 %
05.11.2019 15:40 10,5 C 10,0 C 8,9 C 92 % 997,6 hPa 0,0 l/m 0 min 0 min 63 W/m 0,0 km/h (0 Bft) 93,62 %
05.11.2019 15:42 10,5 C 10,0 C 8,3 C 92 % 997,6 hPa 0,0 l/m 0 min 0 min 61 W/m 0,0 km/h (0 Bft) 93,62 %
05.11.2019 15:44 10,5 C 10,0 C 8,3 C 92 % 997,6 hPa 0,0 l/m 0 min 0 min 59 W/m 0,0 km/h (0 Bft) 91,30 %
05.11.2019 15:46 10,5 C 10,0 C 8,3 C 92 % 997,6 hPa 0,0 l/m 0 min 0 min 55 W/m 0,0 km/h (0 Bft) 91,49 %
05.11.2019 15:48 10,5 C 10,0 C 8,3 C 92 % 997,7 hPa 0,0 l/m 0 min 0 min 54 W/m 0,0 km/h (0 Bft) 93,62 %
05.11.2019 15:50 10,4 C 10,0 C 8,3 C 92 % 997,7 hPa 0,0 l/m 0 min 0 min 52 W/m 0,0 km/h (0 Bft) 93,62 %
05.11.2019 15:52 10,4 C 10,0 C 8,3 C 92 % 997,7 hPa 0,0 l/m 0 min 0 min 48 W/m 0,0 km/h (0 Bft) 97,87 %
05.11.2019 15:54 10,4 C 9,4 C 8,3 C 92 % 997,7 hPa 0,0 l/m 0 min 0 min 47 W/m 0,0 km/h (0 Bft) 97,87 %
05.11.2019 15:56 10,4 C 9,4 C 8,3 C 92 % 997,8 hPa 0,0 l/m 0 min 0 min 44 W/m 0,0 km/h (0 Bft) 97,83 %
05.11.2019 15:58 10,4 C 9,4 C 8,3 C 92 % 997,8 hPa 0,0 l/m 0 min 0 min 42 W/m 0,0 km/h (0 Bft) 97,87 %
05.11.2019 16:00 10,4 C 9,4 C 8,3 C 93 % 997,7 hPa 0,0 l/m 0 min 0 min 40 W/m 0,0 km/h (0 Bft) 97,87 %
05.11.2019 16:02 10,4 C 9,4 C 8,3 C 92 % 997,7 hPa 0,0 l/m 0 min 0 min 39 W/m 0,0 km/h (0 Bft) 93,62 %
05.11.2019 16:04 10,4 C 9,4 C 8,3 C 92 % 997,7 hPa 0,0 l/m 0 min 0 min 36 W/m 0,0 km/h (0 Bft) 97,87 %
05.11.2019 16:06 10,3 C 9,4 C 7,8 C 92 % 997,7 hPa 0,0 l/m 0 min 0 min 35 W/m 0,0 km/h (0 Bft) 95,74 %
05.11.2019 16:08 10,3 C 9,4 C 7,8 C 92 % 997,8 hPa 0,0 l/m 0 min 0 min 33 W/m 0,0 km/h (0 Bft) 95,65 %
05.11.2019 16:10 10,3 C 9,4 C 7,8 C 92 % 997,7 hPa 0,0 l/m 0 min 0 min 32 W/m 0,0 km/h (0 Bft) 97,87 %
05.11.2019 16:12 10,3 C 8,9 C 7,8 C 92 % 997,8 hPa 0,0 l/m 0 min 0 min 32 W/m 0,0 km/h (0 Bft) 97,87 %
05.11.2019 16:14 10,3 C 8,9 C 7,8 C 92 % 997,7 hPa 0,0 l/m 0 min 0 min 30 W/m 0,0 km/h (0 Bft) 100,00 %
05.11.2019 16:16 10,2 C 8,9 C 7,8 C 92 % 997,8 hPa 0,0 l/m 0 min 0 min 30 W/m 0,0 km/h (0 Bft) 100,00 %
05.11.2019 16:18 10,2 C 8,9 C 7,8 C 92 % 997,8 hPa 0,0 l/m 0 min 0 min 30 W/m 0,0 km/h (0 Bft) 100,00 %
05.11.2019 16:20 10,2 C 8,9 C 7,8 C 92 % 997,9 hPa 0,0 l/m 0 min 0 min 28 W/m 0,0 km/h (0 Bft) 97,87 %
05.11.2019 16:22 10,2 C 8,9 C 7,8 C 92 % 997,8 hPa 0,0 l/m 0 min 0 min 28 W/m 0,0 km/h (0 Bft) 100,00 %
05.11.2019 16:24 10,1 C 8,3 C 7,8 C 92 % 997,9 hPa 0,0 l/m 0 min 0 min 26 W/m 0,0 km/h (0 Bft) 100,00 %
05.11.2019 16:26 10,1 C 8,3 C 7,2 C 92 % 997,8 hPa 0,0 l/m 0 min 0 min 26 W/m 0,0 km/h (0 Bft) 100,00 %
05.11.2019 16:28 10,1 C 8,3 C 7,2 C 92 % 997,9 hPa 0,0 l/m 0 min 0 min 25 W/m 0,0 km/h (0 Bft) 100,00 %
05.11.2019 16:30 10,1 C 8,3 C 7,2 C 92 % 997,9 hPa 0,0 l/m 0 min 0 min 23 W/m 0,0 km/h (0 Bft) 100,00 %
05.11.2019 16:32 10,0 C 8,3 C 7,2 C 92 % 997,9 hPa 0,0 l/m 0 min 0 min 22 W/m 0,0 km/h (0 Bft) 100,00 %
05.11.2019 16:34 10,0 C 8,3 C 7,2 C 92 % 997,9 hPa 0,0 l/m 0 min 0 min 19 W/m 0,0 km/h (0 Bft) 100,00 %
05.11.2019 16:36 9,9 C 7,8 C 7,2 C 92 % 997,9 hPa 0,0 l/m 0 min 0 min 18 W/m 0,0 km/h (0 Bft) 100,00 %
05.11.2019 16:38 9,9 C 7,8 C 7,2 C 92 % 997,9 hPa 0,0 l/m 0 min 0 min 17 W/m 0,0 km/h (0 Bft) 100,00 %
05.11.2019 16:40 9,9 C 7,8 C 7,2 C 92 % 997,9 hPa 0,0 l/m 0 min 0 min 15 W/m 0,0 km/h (0 Bft) 100,00 %
05.11.2019 16:42 9,8 C 7,8 C 6,7 C 92 % 998,0 hPa 0,0 l/m 0 min 0 min 14 W/m 0,0 km/h (0 Bft) 100,00 %
05.11.2019 16:44 9,8 C 7,8 C 6,7 C 92 % 997,9 hPa 0,0 l/m 0 min 0 min 12 W/m 0,0 km/h (0 Bft) 97,87 %
05.11.2019 16:46 9,8 C 7,8 C 6,7 C 92 % 998,0 hPa 0,0 l/m 0 min 0 min 11 W/m 0,0 km/h (0 Bft) 100,00 %
05.11.2019 16:48 9,7 C 7,2 C 6,7 C 92 % 998,0 hPa 0,0 l/m 0 min 0 min 10 W/m 0,0 km/h (0 Bft) 100,00 %
05.11.2019 16:50 9,7 C 7,2 C 6,7 C 92 % 998,0 hPa 0,0 l/m 0 min 0 min 8 W/m 0,0 km/h (0 Bft) 100,00 %
05.11.2019 16:52 9,6 C 7,2 C 6,7 C 92 % 998,1 hPa 0,0 l/m 0 min 0 min 7 W/m 0,0 km/h (0 Bft) 100,00 %
05.11.2019 16:54 9,6 C 7,2 C 6,7 C 92 % 998,0 hPa 0,0 l/m 0 min 0 min 6 W/m 0,0 km/h (0 Bft) 97,83 %
05.11.2019 16:56 9,6 C 7,2 C 6,7 C 92 % 998,0 hPa 0,0 l/m 0 min 0 min 5 W/m 0,0 km/h (0 Bft) 100,00 %
05.11.2019 16:58 9,5 C 7,2 C 6,7 C 92 % 998,1 hPa 0,0 l/m 0 min 0 min 5 W/m 0,0 km/h (0 Bft) 100,00 %
05.11.2019 17:00 9,4 C 7,2 C 6,7 C 92 % 998,1 hPa 0,0 l/m 0 min 0 min 4 W/m 0,0 km/h (0 Bft) 100,00 %
05.11.2019 17:02 9,4 C 7,2 C 6,7 C 92 % 998,1 hPa 0,0 l/m 0 min 0 min 0 W/m 0,0 km/h (0 Bft) 97,87 %
05.11.2019 17:04 9,3 C 7,2 C 6,7 C 92 % 998,2 hPa 0,0 l/m 0 min 0 min 0 W/m 0,0 km/h (0 Bft) 100,00 %
05.11.2019 17:06 9,3 C 7,2 C 6,7 C 92 % 998,1 hPa 0,0 l/m 0 min 0 min 0 W/m 0,0 km/h (0 Bft) 100,00 %
05.11.2019 17:08 9,3 C 7,2 C 6,7 C 92 % 998,2 hPa 0,0 l/m 0 min 0 min 0 W/m 0,0 km/h (0 Bft) 100,00 %
05.11.2019 17:10 9,2 C 7,2 C 6,7 C 92 % 998,2 hPa 0,0 l/m 0 min 0 min 0 W/m 0,0 km/h (0 Bft) 100,00 %
05.11.2019 17:12 9,2 C 7,2 C 6,7 C 92 % 998,2 hPa 0,0 l/m 0 min 0 min 0 W/m 0,0 km/h (0 Bft) 97,87 %
05.11.2019 17:14 9,1 C 7,2 C 6,7 C 92 % 998,2 hPa 0,0 l/m 0 min 0 min 0 W/m 0,0 km/h (0 Bft) 100,00 %
05.11.2019 17:16 9,1 C 7,2 C 6,7 C 92 % 998,1 hPa 0,0 l/m 0 min 0 min 0 W/m 0,0 km/h (0 Bft) 100,00 %
05.11.2019 17:18 9,1 C 7,2 C 6,7 C 92 % 998,2 hPa 0,0 l/m 0 min 0 min 0 W/m 0,0 km/h (0 Bft) 100,00 %
05.11.2019 17:20 9,1 C 7,2 C 6,7 C 92 % 998,1 hPa 0,0 l/m 0 min 0 min 0 W/m 0,0 km/h (0 Bft) 100,00 %
05.11.2019 17:22 9,0 C 7,2 C 6,7 C 92 % 998,2 hPa 0,0 l/m 0 min 0 min 0 W/m 0,0 km/h (0 Bft) 97,83 %
05.11.2019 17:24 8,9 C 7,2 C 6,7 C 92 % 998,2 hPa 0,0 l/m 0 min 0 min 0 W/m 0,0 km/h (0 Bft) 97,87 %
05.11.2019 17:26 8,9 C 7,2 C 6,7 C 92 % 998,2 hPa 0,0 l/m 0 min 0 min 0 W/m 0,0 km/h (0 Bft) 97,87 %
05.11.2019 17:28 8,9 C 7,2 C 6,7 C 93 % 998,2 hPa 0,0 l/m 0 min 0 min 0 W/m 0,0 km/h (0 Bft) 100,00 %
05.11.2019 17:30 8,9 C 6,7 C 6,7 C 93 % 998,2 hPa 0,0 l/m 0 min 0 min 0 W/m 0,0 km/h (0 Bft) 97,87 %
05.11.2019 17:32 8,8 C 6,7 C 6,7 C 93 % 998,3 hPa 0,0 l/m 0 min 0 min 0 W/m 0,0 km/h (0 Bft) 100,00 %
05.11.2019 17:34 8,8 C 6,7 C 6,7 C 93 % 998,2 hPa 0,0 l/m 0 min 0 min 0 W/m 0,0 km/h (0 Bft) 100,00 %
05.11.2019 17:36 8,8 C 6,7 C 6,7 C 93 % 998,2 hPa 0,0 l/m 0 min 0 min 0 W/m 0,0 km/h (0 Bft) 95,74 %
05.11.2019 17:38 8,8 C 6,7 C 6,7 C 93 % 998,2 hPa 0,0 l/m 0 min 0 min 0 W/m 0,0 km/h (0 Bft) 100,00 %
05.11.2019 17:40 8,7 C 6,7 C 6,1 C 93 % 998,2 hPa 0,0 l/m 0 min 0 min 0 W/m 0,0 km/h (0 Bft) 100,00 %
05.11.2019 17:42 8,7 C 6,7 C 6,7 C 93 % 998,2 hPa 0,0 l/m 0 min 0 min 0 W/m 0,0 km/h (0 Bft) 100,00 %
05.11.2019 17:44 8,7 C 6,7 C 6,7 C 93 % 998,2 hPa 0,0 l/m 0 min 0 min 0 W/m 0,0 km/h (0 Bft) 97,83 %
05.11.2019 17:46 8,7 C 6,7 C 6,7 C 93 % 998,3 hPa 0,0 l/m 0 min 0 min 0 W/m 0,0 km/h (0 Bft) 97,87 %
05.11.2019 17:48 8,6 C 6,7 C 6,7 C 93 % 998,3 hPa 0,0 l/m 0 min 0 min 0 W/m 0,0 km/h (0 Bft) 97,87 %
05.11.2019 17:50 8,6 C 6,7 C 6,7 C 93 % 998,3 hPa 0,0 l/m 0 min 0 min 0 W/m 0,0 km/h (0 Bft) 95,74 %
05.11.2019 17:52 8,6 C 6,7 C 6,7 C 93 % 998,3 hPa 0,0 l/m 0 min 0 min 0 W/m 0,0 km/h (0 Bft) 97,87 %
05.11.2019 17:54 8,6 C 6,7 C 6,7 C 93 % 998,3 hPa 0,0 l/m 0 min 0 min 0 W/m 0,0 km/h (0 Bft) 97,87 %
05.11.2019 17:56 8,6 C 6,7 C 6,7 C 93 % 998,3 hPa 0,0 l/m 0 min 0 min 0 W/m 0,0 km/h (0 Bft) 97,83 %
05.11.2019 17:58 8,6 C 6,7 C 6,7 C 94 % 998,3 hPa 0,0 l/m 0 min 0 min 0 W/m 0,0 km/h (0 Bft) 97,87 %
05.11.2019 18:00 8,5 C 7,2 C 6,7 C 93 % 998,3 hPa 0,0 l/m 0 min 0 min 0 W/m 0,0 km/h (0 Bft) 95,74 %
05.11.2019 18:02 8,5 C 7,2 C 6,7 C 93 % 998,3 hPa 0,0 l/m 0 min 0 min 0 W/m 0,0 km/h (0 Bft) 97,87 %
05.11.2019 18:04 8,4 C 7,2 C 6,7 C 93 % 998,4 hPa 0,0 l/m 0 min 0 min 0 W/m 0,0 km/h (0 Bft) 95,74 %
05.11.2019 18:08 8,4 C 6,7 C 6,7 C 93 % 998,4 hPa 0,0 l/m 0 min 0 min 0 W/m 0,0 km/h (0 Bft) 97,85 %
05.11.2019 18:10 8,4 C 6,7 C 6,7 C 94 % 998,5 hPa 0,0 l/m 0 min 0 min 0 W/m 0,0 km/h (0 Bft) 97,87 %
05.11.2019 18:12 8,4 C 7,2 C 6,7 C 94 % 998,5 hPa 0,0 l/m 0 min 0 min 0 W/m 0,0 km/h (0 Bft) 97,87 %
05.11.2019 18:14 8,4 C 7,2 C 6,7 C 94 % 998,5 hPa 0,0 l/m 0 min 0 min 0 W/m 0,0 km/h (0 Bft) 97,87 %
05.11.2019 18:16 8,3 C 7,2 C 6,7 C 94 % 998,5 hPa 0,0 l/m 0 min 0 min 0 W/m 0,0 km/h (0 Bft) 95,74 %
05.11.2019 18:18 8,3 C 7,2 C 6,7 C 94 % 998,5 hPa 0,0 l/m 0 min 0 min 0 W/m 0,0 km/h (0 Bft) 95,74 %
05.11.2019 18:20 8,3 C 7,2 C 6,7 C 94 % 998,6 hPa 0,0 l/m 0 min 0 min 0 W/m 0,0 km/h (0 Bft) 93,48 %
05.11.2019 18:22 8,3 C 7,2 C 6,7 C 94 % 998,6 hPa 0,0 l/m 0 min 0 min 0 W/m 0,0 km/h (0 Bft) 93,62 %
05.11.2019 18:24 8,3 C 7,2 C 6,7 C 94 % 998,6 hPa 0,0 l/m 0 min 0 min 0 W/m 0,0 km/h (0 Bft) 93,62 %
05.11.2019 18:26 8,3 C 7,2 C 6,7 C 94 % 998,7 hPa 0,0 l/m 0 min 0 min 0 W/m 0,0 km/h (0 Bft) 91,49 %
05.11.2019 18:28 8,3 C 7,2 C 6,7 C 94 % 998,7 hPa 0,0 l/m 0 min 0 min 0 W/m 0,0 km/h (0 Bft) 93,62 %
05.11.2019 18:30 8,2 C 7,2 C 6,7 C 94 % 998,7 hPa 0,0 l/m 0 min 0 min 0 W/m 0,0 km/h (0 Bft) 95,65 %
05.11.2019 18:32 8,2 C 6,7 C 6,7 C 94 % 998,6 hPa 0,0 l/m 0 min 0 min 0 W/m 0,0 km/h (0 Bft) 95,74 %
05.11.2019 18:34 8,2 C 6,7 C 6,7 C 94 % 998,7 hPa 0,0 l/m 0 min 0 min 0 W/m 0,0 km/h (0 Bft) 93,62 %
05.11.2019 18:36 8,2 C 6,7 C 6,7 C 94 % 998,7 hPa 0,0 l/m 0 min 0 min 0 W/m 0,0 km/h (0 Bft) 95,74 %
05.11.2019 18:38 8,2 C 6,7 C 6,7 C 94 % 998,7 hPa 0,0 l/m 0 min 0 min 0 W/m 0,0 km/h (0 Bft) 91,43 %
05.11.2019 18:40 8,2 C 6,7 C 6,7 C 94 % 998,7 hPa 0,0 l/m 0 min 0 min 0 W/m 0,0 km/h (0 Bft) 95,74 %
05.11.2019 18:42 8,2 C 6,7 C 6,7 C 94 % 998,7 hPa 0,0 l/m 0 min 0 min 0 W/m 0,0 km/h (0 Bft) 95,74 %
05.11.2019 18:44 8,2 C 6,7 C 6,7 C 94 % 998,7 hPa 0,0 l/m 0 min 0 min 0 W/m 0,0 km/h (0 Bft) 95,74 %
05.11.2019 18:46 8,2 C 6,7 C 6,7 C 94 % 998,7 hPa 0,0 l/m 0 min 0 min 0 W/m 0,0 km/h (0 Bft) 93,48 %
05.11.2019 18:48 8,2 C 6,7 C 6,1 C 94 % 998,7 hPa 0,0 l/m 0 min 0 min 0 W/m 0,0 km/h (0 Bft) 95,74 %
05.11.2019 18:50 8,1 C 6,7 C 6,1 C 94 % 998,7 hPa 0,0 l/m 0 min 0 min 0 W/m 0,0 km/h (0 Bft) 93,62 %
05.11.2019 18:52 8,1 C 6,7 C 6,1 C 94 % 998,8 hPa 0,0 l/m 0 min 0 min 0 W/m 0,0 km/h (0 Bft) 95,74 %
05.11.2019 18:54 8,1 C 6,7 C 6,1 C 94 % 998,8 hPa 0,0 l/m 0 min 0 min 0 W/m 0,0 km/h (0 Bft) 95,74 %
05.11.2019 18:56 8,1 C 6,7 C 6,1 C 94 % 998,8 hPa 0,0 l/m 0 min 0 min 0 W/m 0,0 km/h (0 Bft) 95,74 %
05.11.2019 18:58 8,1 C 7,2 C 6,1 C 94 % 998,8 hPa 0,0 l/m 0 min 0 min 0 W/m 0,0 km/h (0 Bft) 91,30 %
05.11.2019 19:00 8,1 C 7,2 C 6,7 C 94 % 998,8 hPa 0,0 l/m 0 min 0 min 0 W/m 0,0 km/h (0 Bft) 95,74 %
05.11.2019 19:02 8,1 C 6,7 C 6,7 C 94 % 998,8 hPa 0,0 l/m 0 min 0 min 0 W/m 0,0 km/h (0 Bft) 93,62 %
05.11.2019 19:04 8,1 C 6,7 C 6,7 C 94 % 998,8 hPa 0,0 l/m 0 min 0 min 0 W/m 0,0 km/h (0 Bft) 97,87 %
05.11.2019 19:06 8,1 C 6,7 C 6,7 C 94 % 998,8 hPa 0,0 l/m 0 min 0 min 0 W/m 0,0 km/h (0 Bft) 97,87 %
05.11.2019 19:08 8,1 C 6,7 C 6,7 C 94 % 998,9 hPa 0,0 l/m 0 min 0 min 0 W/m 0,0 km/h (0 Bft) 97,83 %
05.11.2019 19:10 8,1 C 6,7 C 6,7 C 94 % 998,8 hPa 0,0 l/m 0 min 0 min 0 W/m 0,0 km/h (0 Bft) 95,74 %
05.11.2019 19:12 8,1 C 6,7 C 6,7 C 94 % 998,9 hPa 0,0 l/m 0 min 0 min 0 W/m 0,0 km/h (0 Bft) 95,74 %
05.11.2019 19:14 8,1 C 6,7 C 6,7 C 94 % 998,9 hPa 0,0 l/m 0 min 0 min 0 W/m 0,0 km/h (0 Bft) 97,87 %
05.11.2019 19:16 8,1 C 6,7 C 6,7 C 94 % 998,9 hPa 0,0 l/m 0 min 0 min 0 W/m 0,0 km/h (0 Bft) 95,74 %
05.11.2019 19:18 8,1 C 6,7 C 6,7 C 94 % 999,0 hPa 0,0 l/m 0 min 0 min 0 W/m 0,0 km/h (0 Bft) 97,87 %
05.11.2019 19:20 8,0 C 6,7 C 6,7 C 94 % 999,0 hPa 0,0 l/m 0 min 0 min 0 W/m 0,0 km/h (0 Bft) 95,65 %
05.11.2019 19:22 8,0 C 6,7 C 6,7 C 94 % 999,0 hPa 0,0 l/m 0 min 0 min 0 W/m 0,0 km/h (0 Bft) 97,87 %
05.11.2019 19:24 8,0 C 6,7 C 6,7 C 94 % 999,0 hPa 0,0 l/m 0 min 0 min 0 W/m 0,0 km/h (0 Bft) 97,87 %
05.11.2019 19:26 8,0 C 6,7 C 6,7 C 94 % 999,0 hPa 0,0 l/m 0 min 0 min 0 W/m 0,0 km/h (0 Bft) 100,00 %
05.11.2019 19:28 8,0 C 6,7 C 6,7 C 94 % 999,0 hPa 0,0 l/m 0 min 0 min 0 W/m 0,0 km/h (0 Bft) 100,00 %
05.11.2019 19:30 8,0 C 6,7 C 6,7 C 94 % 999,0 hPa 0,0 l/m 0 min 0 min 0 W/m 0,0 km/h (0 Bft) 100,00 %
05.11.2019 19:32 8,0 C 6,7 C 6,7 C 94 % 999,0 hPa 0,0 l/m 0 min 0 min 0 W/m 0,0 km/h (0 Bft) 100,00 %
05.11.2019 19:34 7,9 C 6,7 C 6,7 C 94 % 999,0 hPa 0,0 l/m 0 min 0 min 0 W/m 0,0 km/h (0 Bft) 100,00 %
05.11.2019 19:36 7,9 C 7,2 C 6,7 C 94 % 999,0 hPa 0,0 l/m 0 min 0 min 0 W/m 0,0 km/h (0 Bft) 100,00 %
05.11.2019 19:38 7,9 C 7,2 C 6,7 C 94 % 999,0 hPa 0,0 l/m 0 min 0 min 0 W/m 0,0 km/h (0 Bft) 97,87 %
05.11.2019 19:40 7,9 C 7,2 C 6,7 C 94 % 999,0 hPa 0,0 l/m 0 min 0 min 0 W/m 0,0 km/h (0 Bft) 100,00 %
05.11.2019 19:42 7,9 C 7,2 C 6,7 C 94 % 999,1 hPa 0,0 l/m 0 min 0 min 0 W/m 0,0 km/h (0 Bft) 97,87 %
05.11.2019 19:44 7,9 C 7,2 C 6,7 C 94 % 999,0 hPa 0,0 l/m 0 min 0 min 0 W/m 0,0 km/h (0 Bft) 97,83 %
05.11.2019 19:46 7,9 C 7,2 C 6,7 C 94 % 999,0 hPa 0,0 l/m 0 min 0 min 0 W/m 0,0 km/h (0 Bft) 97,87 %
05.11.2019 19:48 7,9 C 7,2 C 6,7 C 94 % 999,1 hPa 0,0 l/m 0 min 0 min 0 W/m 0,0 km/h (0 Bft) 100,00 %
05.11.2019 19:50 7,9 C 7,2 C 6,7 C 95 % 999,1 hPa 0,0 l/m 0 min 0 min 0 W/m 0,0 km/h (0 Bft) 100,00 %
05.11.2019 19:52 8,0 C 7,8 C 6,7 C 94 % 999,1 hPa 0,0 l/m 0 min 0 min 0 W/m 0,0 km/h (0 Bft) 100,00 %
05.11.2019 19:54 8,0 C 7,8 C 6,7 C 95 % 999,1 hPa 0,0 l/m 0 min 0 min 0 W/m 0,0 km/h (0 Bft) 97,87 %
05.11.2019 19:56 8,0 C 7,8 C 6,7 C 95 % 999,1 hPa 0,0 l/m 0 min 0 min 0 W/m 0,0 km/h (0 Bft) 100,00 %
05.11.2019 19:58 8,1 C 7,8 C 6,7 C 95 % 999,1 hPa 0,0 l/m 0 min 0 min 0 W/m 0,0 km/h (0 Bft) 100,00 %
05.11.2019 20:00 8,1 C 7,8 C 7,2 C 95 % 999,1 hPa 0,0 l/m 0 min 0 min 0 W/m 0,0 km/h (0 Bft) 95,83 %
05.11.2019 20:02 8,1 C 7,8 C 7,2 C 95 % 999,1 hPa 0,0 l/m 0 min 0 min 0 W/m 0,0 km/h (0 Bft) 100,00 %
05.11.2019 20:04 8,1 C 7,8 C 7,2 C 95 % 999,1 hPa 0,0 l/m 0 min 0 min 0 W/m 0,0 km/h (0 Bft) 95,92 %
05.11.2019 20:06 8,1 C 7,8 C 7,2 C 95 % 999,1 hPa 0,0 l/m 0 min 0 min 0 W/m 0,0 km/h (0 Bft) 100,00 %
05.11.2019 20:08 8,1 C 7,8 C 7,2 C 95 % 999,2 hPa 0,0 l/m 0 min 0 min 0 W/m 0,0 km/h (0 Bft) 100,00 %
05.11.2019 20:10 8,1 C 7,8 C 7,2 C 95 % 999,2 hPa 0,0 l/m 0 min 0 min 0 W/m 0,0 km/h (0 Bft) 100,00 %
05.11.2019 20:12 8,2 C 7,8 C 7,2 C 95 % 999,2 hPa 0,0 l/m 0 min 0 min 0 W/m 0,0 km/h (0 Bft) 97,87 %
05.11.2019 20:14 8,2 C 7,8 C 7,2 C 95 % 999,2 hPa 0,0 l/m 0 min 0 min 0 W/m 0,0 km/h (0 Bft) 100,00 %
05.11.2019 20:16 8,2 C 7,8 C 7,2 C 96 % 999,2 hPa 0,0 l/m 0 min 0 min 0 W/m 0,0 km/h (0 Bft) 97,87 %
05.11.2019 20:18 8,2 C 7,8 C 7,2 C 96 % 999,2 hPa 0,0 l/m 0 min 0 min 0 W/m 0,0 km/h (0 Bft) 97,87 %
05.11.2019 20:20 8,2 C 7,8 C 7,2 C 96 % 999,2 hPa 0,0 l/m 0 min 0 min 0 W/m 0,0 km/h (0 Bft) 97,87 %
05.11.2019 20:22 8,3 C 7,8 C 7,2 C 96 % 999,2 hPa 0,0 l/m 0 min 0 min 0 W/m 0,0 km/h (0 Bft) 97,83 %
05.11.2019 20:24 8,3 C 7,8 C 7,2 C 96 % 999,2 hPa 0,0 l/m 0 min 0 min 0 W/m 0,0 km/h (0 Bft) 97,87 %
05.11.2019 20:26 8,3 C 7,8 C 7,2 C 96 % 999,2 hPa 0,0 l/m 0 min 0 min 0 W/m 0,0 km/h (0 Bft) 97,87 %
05.11.2019 20:28 8,3 C 7,8 C 7,2 C 96 % 999,2 hPa 0,0 l/m 0 min 0 min 0 W/m 0,0 km/h (0 Bft) 97,87 %
05.11.2019 20:30 8,3 C 7,8 C 7,2 C 96 % 999,2 hPa 0,0 l/m 0 min 0 min 0 W/m 0,0 km/h (0 Bft) 97,87 %
05.11.2019 20:32 8,3 C 7,8 C 7,2 C 96 % 999,3 hPa 0,0 l/m 0 min 0 min 0 W/m 0,0 km/h (0 Bft) 95,65 %
05.11.2019 20:34 8,3 C 7,8 C 7,2 C 96 % 999,3 hPa 0,0 l/m 0 min 0 min 0 W/m 0,0 km/h (0 Bft) 97,87 %
05.11.2019 20:36 8,3 C 7,2 C 7,2 C 96 % 999,2 hPa 0,0 l/m 0 min 0 min 0 W/m 0,0 km/h (0 Bft) 97,14 %
05.11.2019 20:38 8,3 C 7,2 C 7,2 C 96 % 999,2 hPa 0,0 l/m 0 min 0 min 0 W/m 0,0 km/h (0 Bft) 98,28 %
05.11.2019 20:40 8,3 C 7,2 C 7,2 C 96 % 999,3 hPa 0,0 l/m 0 min 0 min 0 W/m 0,0 km/h (0 Bft) 97,87 %
05.11.2019 20:42 8,3 C 7,2 C 7,2 C 96 % 999,3 hPa 0,0 l/m 0 min 0 min 0 W/m 0,0 km/h (0 Bft) 97,87 %
05.11.2019 20:44 8,3 C 7,2 C 7,2 C 96 % 999,3 hPa 0,0 l/m 0 min 0 min 0 W/m 0,0 km/h (0 Bft) 95,12 %
05.11.2019 20:46 8,3 C 7,2 C 7,2 C 96 % 999,3 hPa 0,0 l/m 0 min 0 min 0 W/m 0,0 km/h (0 Bft) 97,87 %
05.11.2019 20:48 8,3 C 7,2 C 7,2 C 96 % 999,3 hPa 0,0 l/m 0 min 0 min 0 W/m 0,0 km/h (0 Bft) 95,74 %
05.11.2019 20:50 8,3 C 7,2 C 7,2 C 96 % 999,3 hPa 0,0 l/m 0 min 0 min 0 W/m 0,0 km/h (0 Bft) 97,83 %
05.11.2019 20:52 8,3 C 7,2 C 7,2 C 96 % 999,3 hPa 0,0 l/m 0 min 0 min 0 W/m 0,0 km/h (0 Bft) 97,87 %
05.11.2019 20:54 8,3 C 7,2 C 7,2 C 96 % 999,3 hPa 0,0 l/m 0 min 0 min 0 W/m 0,0 km/h (0 Bft) 97,92 %
05.11.2019 20:56 8,3 C 7,2 C 7,2 C 96 % 999,3 hPa 0,0 l/m 0 min 0 min 0 W/m 0,0 km/h (0 Bft) 95,74 %
05.11.2019 20:58 8,3 C 7,8 C 7,2 C 96 % 999,3 hPa 0,0 l/m 0 min 0 min 0 W/m 0,0 km/h (0 Bft) 95,74 %
05.11.2019 21:00 8,3 C 7,8 C 7,2 C 96 % 999,3 hPa 0,0 l/m 0 min 0 min 0 W/m 0,0 km/h (0 Bft) 95,74 %
05.11.2019 21:02 8,3 C 7,8 C 7,2 C 96 % 999,3 hPa 0,0 l/m 0 min 0 min 0 W/m 0,0 km/h (0 Bft) 95,65 %
05.11.2019 21:04 8,3 C 7,8 C 7,2 C 96 % 999,3 hPa 0,0 l/m 0 min 0 min 0 W/m 0,0 km/h (0 Bft) 96,00 %
05.11.2019 21:06 8,3 C 7,8 C 7,2 C 96 % 999,3 hPa 0,0 l/m 0 min 0 min 0 W/m 0,0 km/h (0 Bft) 97,92 %
05.11.2019 21:08 8,3 C 7,8 C 7,2 C 96 % 999,4 hPa 0,0 l/m 0 min 0 min 0 W/m 0,0 km/h (0 Bft) 97,87 %
05.11.2019 21:10 8,3 C 7,8 C 7,2 C 96 % 999,3 hPa 0,0 l/m 0 min 0 min 0 W/m 0,0 km/h (0 Bft) 97,87 %
05.11.2019 21:12 8,3 C 7,8 C 7,2 C 96 % 999,4 hPa 0,0 l/m 0 min 0 min 0 W/m 0,0 km/h (0 Bft) 95,65 %
05.11.2019 21:14 8,3 C 7,8 C 7,2 C 96 % 999,3 hPa 0,0 l/m 0 min 0 min 0 W/m 0,0 km/h (0 Bft) 97,87 %
05.11.2019 21:16 8,3 C 7,8 C 7,2 C 96 % 999,4 hPa 0,0 l/m 0 min 0 min 0 W/m 0,0 km/h (0 Bft) 97,87 %
05.11.2019 21:18 8,3 C 7,8 C 7,2 C 97 % 999,4 hPa 0,0 l/m 0 min 0 min 0 W/m 0,0 km/h (0 Bft) 97,87 %
05.11.2019 21:20 8,3 C 7,8 C 7,2 C 97 % 999,4 hPa 0,0 l/m 0 min 0 min 0 W/m 0,0 km/h (0 Bft) 95,74 %
05.11.2019 21:22 8,3 C 7,8 C 7,2 C 97 % 999,4 hPa 0,0 l/m 0 min 0 min 0 W/m 0,0 km/h (0 Bft) 97,87 %
05.11.2019 21:24 8,3 C 7,8 C 7,2 C 97 % 999,4 hPa 0,0 l/m 0 min 0 min 0 W/m 0,0 km/h (0 Bft) 97,87 %
05.11.2019 21:26 8,4 C 7,8 C 7,2 C 97 % 999,4 hPa 0,0 l/m 0 min 0 min 0 W/m 0,0 km/h (0 Bft) 97,22 %
05.11.2019 21:28 8,4 C 7,8 C 7,2 C 97 % 999,4 hPa 0,0 l/m 0 min 0 min 0 W/m 0,0 km/h (0 Bft) 97,83 %
05.11.2019 21:30 8,4 C 7,8 C 7,2 C 97 % 999,4 hPa 0,0 l/m 0 min 0 min 0 W/m 0,0 km/h (0 Bft) 97,87 %
05.11.2019 21:32 8,4 C 7,8 C 7,2 C 97 % 999,4 hPa 0,0 l/m 0 min 0 min 0 W/m 0,0 km/h (0 Bft) 95,74 %
05.11.2019 21:34 8,4 C 7,8 C 7,2 C 97 % 999,5 hPa 0,0 l/m 0 min 0 min 0 W/m 0,0 km/h (0 Bft) 97,92 %
05.11.2019 21:36 8,4 C 7,8 C 7,2 C 97 % 999,4 hPa 0,0 l/m 0 min 0 min 0 W/m 0,0 km/h (0 Bft) 95,74 %
05.11.2019 21:38 8,4 C 7,8 C 7,2 C 97 % 999,5 hPa 0,0 l/m 0 min 0 min 0 W/m 0,0 km/h (0 Bft) 97,83 %
05.11.2019 21:40 8,4 C 7,8 C 7,2 C 97 % 999,5 hPa 0,0 l/m 0 min 0 min 0 W/m 0,0 km/h (0 Bft) 97,87 %
05.11.2019 21:42 8,4 C 7,8 C 7,2 C 97 % 999,4 hPa 0,0 l/m 0 min 0 min 0 W/m 0,0 km/h (0 Bft) 97,87 %
05.11.2019 21:44 8,4 C 7,8 C 7,2 C 97 % 999,5 hPa 0,0 l/m 0 min 0 min 0 W/m 0,0 km/h (0 Bft) 100,00 %
05.11.2019 21:46 8,4 C 7,8 C 7,2 C 97 % 999,5 hPa 0,0 l/m 0 min 0 min 0 W/m 3,2 km/h (1 Bft) 100,00 %
05.11.2019 21:48 8,4 C 7,8 C 7,2 C 97 % 999,4 hPa 0,0 l/m 0 min 0 min 0 W/m 0,0 km/h (0 Bft) 95,74 %
05.11.2019 21:50 8,4 C 7,8 C 7,2 C 97 % 999,5 hPa 0,0 l/m 0 min 0 min 0 W/m 0,0 km/h (0 Bft) 95,74 %
05.11.2019 21:52 8,4 C 7,8 C 7,2 C 97 % 999,5 hPa 0,0 l/m 0 min 0 min 0 W/m 0,0 km/h (0 Bft) 95,74 %
05.11.2019 21:54 8,4 C 7,8 C 7,2 C 97 % 999,5 hPa 0,0 l/m 0 min 0 min 0 W/m 0,0 km/h (0 Bft) 97,87 %
05.11.2019 21:56 8,5 C 7,8 C 7,2 C 97 % 999,5 hPa 0,0 l/m 0 min 0 min 0 W/m 0,0 km/h (0 Bft) 97,87 %
05.11.2019 21:58 8,5 C 7,8 C 7,2 C 97 % 999,5 hPa 0,0 l/m 0 min 0 min 0 W/m 0,0 km/h (0 Bft) 97,87 %
05.11.2019 22:00 8,5 C 7,8 C 7,2 C 97 % 999,5 hPa 0,0 l/m 0 min 0 min 0 W/m 0,0 km/h (0 Bft) 97,92 %
05.11.2019 22:02 8,5 C 7,8 C 7,2 C 97 % 999,6 hPa 0,0 l/m 0 min 0 min 0 W/m 0,0 km/h (0 Bft) 97,83 %
05.11.2019 22:04 8,5 C 7,8 C 7,2 C 97 % 999,5 hPa 0,0 l/m 0 min 0 min 0 W/m 0,0 km/h (0 Bft) 97,96 %
05.11.2019 22:06 8,5 C 7,8 C 7,2 C 97 % 999,5 hPa 0,0 l/m 0 min 0 min 0 W/m 0,0 km/h (0 Bft) 95,74 %
05.11.2019 22:08 8,5 C 7,8 C 7,2 C 97 % 999,5 hPa 0,0 l/m 0 min 0 min 0 W/m 0,0 km/h (0 Bft) 97,83 %
05.11.2019 22:10 8,6 C 7,8 C 7,2 C 97 % 999,5 hPa 0,0 l/m 0 min 0 min 0 W/m 0,0 km/h (0 Bft) 97,87 %
05.11.2019 22:12 8,5 C 7,8 C 7,2 C 97 % 999,5 hPa 0,0 l/m 0 min 0 min 0 W/m 0,0 km/h (0 Bft) 97,87 %
05.11.2019 22:14 8,6 C 7,8 C 7,2 C 97 % 999,5 hPa 0,0 l/m 0 min 0 min 0 W/m 0,0 km/h (0 Bft) 97,87 %
05.11.2019 22:16 8,6 C 7,8 C 7,2 C 97 % 999,5 hPa 0,0 l/m 0 min 0 min 0 W/m 0,0 km/h (0 Bft) 97,87 %
05.11.2019 22:18 8,5 C 7,8 C 7,2 C 97 % 999,5 hPa 0,0 l/m 0 min 0 min 0 W/m 0,0 km/h (0 Bft) 97,87 %
05.11.2019 22:20 8,6 C 7,8 C 7,2 C 97 % 999,6 hPa 0,0 l/m 0 min 0 min 0 W/m 0,0 km/h (0 Bft) 97,83 %
05.11.2019 22:22 8,5 C 7,8 C 7,2 C 97 % 999,6 hPa 0,0 l/m 0 min 0 min 0 W/m 0,0 km/h (0 Bft) 95,74 %
05.11.2019 22:24 8,6 C 7,8 C 7,2 C 97 % 999,6 hPa 0,0 l/m 0 min 0 min 0 W/m 0,0 km/h (0 Bft) 97,87 %
05.11.2019 22:26 8,6 C 7,8 C 7,2 C 97 % 999,6 hPa 0,0 l/m 0 min 0 min 0 W/m 0,0 km/h (0 Bft) 97,87 %
05.11.2019 22:28 8,6 C 7,8 C 7,2 C 97 % 999,5 hPa 0,0 l/m 0 min 0 min 0 W/m 3,2 km/h (1 Bft) 97,87 %
05.11.2019 22:30 8,5 C 7,8 C 7,2 C 97 % 999,5 hPa 0,0 l/m 0 min 0 min 0 W/m 3,2 km/h (1 Bft) 95,74 %
05.11.2019 22:32 8,6 C 7,8 C 7,2 C 97 % 999,6 hPa 0,0 l/m 0 min 0 min 0 W/m 3,2 km/h (1 Bft) 97,83 %
05.11.2019 22:34 8,6 C 7,8 C 7,2 C 97 % 999,6 hPa 0,0 l/m 0 min 0 min 0 W/m 3,2 km/h (1 Bft) 97,87 %
05.11.2019 22:36 8,6 C 7,8 C 7,2 C 97 % 999,6 hPa 0,0 l/m 0 min 0 min 0 W/m 0,0 km/h (0 Bft) 97,87 %
05.11.2019 22:38 8,6 C 7,8 C 7,2 C 97 % 999,6 hPa 0,0 l/m 0 min 0 min 0 W/m 3,2 km/h (1 Bft) 97,87 %
05.11.2019 22:40 8,6 C 7,8 C 7,2 C 97 % 999,6 hPa 0,0 l/m 0 min 0 min 0 W/m 0,0 km/h (0 Bft) 95,74 %
05.11.2019 22:42 8,6 C 7,8 C 7,2 C 97 % 999,6 hPa 0,0 l/m 0 min 0 min 0 W/m 0,0 km/h (0 Bft) 95,65 %
05.11.2019 22:44 8,6 C 7,8 C 7,2 C 97 % 999,6 hPa 0,0 l/m 0 min 0 min 0 W/m 0,0 km/h (0 Bft) 100,00 %
05.11.2019 22:46 8,6 C 7,8 C 7,2 C 97 % 999,6 hPa 0,0 l/m 0 min 0 min 0 W/m 0,0 km/h (0 Bft) 100,00 %
05.11.2019 22:48 8,6 C 7,8 C 7,2 C 97 % 999,6 hPa 0,0 l/m 0 min 0 min 0 W/m 0,0 km/h (0 Bft) 54,55 %
05.11.2019 22:54 8,6 C 7,2 C 6,7 C 97 % 999,6 hPa 0,0 l/m 0 min 0 min 0 W/m 0,0 km/h (0 Bft) 100,00 %
05.11.2019 22:56 8,5 C 7,2 C 6,7 C 97 % 999,6 hPa 0,0 l/m 0 min 0 min 0 W/m 0,0 km/h (0 Bft) 100,00 %
05.11.2019 22:58 8,5 C 7,2 C 6,7 C 97 % 999,6 hPa 0,0 l/m 0 min 0 min 0 W/m 0,0 km/h (0 Bft) 97,87 %
05.11.2019 23:00 8,5 C 6,7 C 6,7 C 97 % 999,7 hPa 0,0 l/m 0 min 0 min 0 W/m 0,0 km/h (0 Bft) 95,74 %
05.11.2019 23:02 8,5 C 6,7 C 6,7 C 97 % 999,6 hPa 0,0 l/m 0 min 2 min 0 W/m 0,0 km/h (0 Bft) 97,87 %
05.11.2019 23:04 8,4 C 6,7 C 6,7 C 97 % 999,7 hPa 0,0 l/m 0 min 2 min 0 W/m 0,0 km/h (0 Bft) 95,65 %
05.11.2019 23:06 8,4 C 6,7 C 6,7 C 97 % 999,7 hPa 0,0 l/m 0 min 2 min 0 W/m 0,0 km/h (0 Bft) 97,87 %
05.11.2019 23:08 8,4 C 6,7 C 6,7 C 97 % 999,7 hPa 0,0 l/m 0 min 2 min 0 W/m 0,0 km/h (0 Bft) 95,92 %
05.11.2019 23:10 8,4 C 7,2 C 6,7 C 97 % 999,7 hPa 0,0 l/m 0 min 0 min 0 W/m 0,0 km/h (0 Bft) 97,83 %
05.11.2019 23:12 8,4 C 6,7 C 6,7 C 97 % 999,7 hPa 0,0 l/m 0 min 0 min 0 W/m 0,0 km/h (0 Bft) 97,87 %
05.11.2019 23:14 8,4 C 6,7 C 6,7 C 97 % 999,7 hPa 0,0 l/m 0 min 2 min 0 W/m 0,0 km/h (0 Bft) 97,87 %
05.11.2019 23:16 8,3 C 7,2 C 6,7 C 97 % 999,7 hPa 0,0 l/m 0 min 2 min 0 W/m 0,0 km/h (0 Bft) 97,87 %
05.11.2019 23:18 8,3 C 7,2 C 6,7 C 97 % 999,7 hPa 0,0 l/m 0 min 0 min 0 W/m 0,0 km/h (0 Bft) 97,87 %
05.11.2019 23:20 8,3 C 7,2 C 6,7 C 97 % 999,7 hPa 0,0 l/m 0 min 0 min 0 W/m 0,0 km/h (0 Bft) 97,87 %
05.11.2019 23:22 8,3 C 7,2 C 6,7 C 97 % 999,8 hPa 0,0 l/m 0 min 0 min 0 W/m 0,0 km/h (0 Bft) 95,65 %
05.11.2019 23:24 8,3 C 7,2 C 6,7 C 97 % 999,7 hPa 0,0 l/m 0 min 0 min 0 W/m 0,0 km/h (0 Bft) 97,87 %
05.11.2019 23:26 8,3 C 7,2 C 6,7 C 97 % 999,7 hPa 0,0 l/m 0 min 0 min 0 W/m 0,0 km/h (0 Bft) 97,87 %
05.11.2019 23:28 8,2 C 7,2 C 6,7 C 97 % 999,7 hPa 0,0 l/m 0 min 0 min 0 W/m 0,0 km/h (0 Bft) 95,74 %
05.11.2019 23:30 8,2 C 7,2 C 6,7 C 97 % 999,7 hPa 0,0 l/m 0 min 0 min 0 W/m 0,0 km/h (0 Bft) 93,62 %
05.11.2019 23:32 8,2 C 7,2 C 6,7 C 97 % 999,7 hPa 0,0 l/m 0 min 0 min 0 W/m 0,0 km/h (0 Bft) 95,74 %
05.11.2019 23:34 8,2 C 7,2 C 6,7 C 97 % 999,7 hPa 0,0 l/m 0 min 0 min 0 W/m 0,0 km/h (0 Bft) 95,65 %
05.11.2019 23:36 8,2 C 7,2 C 6,7 C 97 % 999,8 hPa 0,0 l/m 0 min 0 min 0 W/m 0,0 km/h (0 Bft) 95,74 %
05.11.2019 23:38 8,2 C 7,2 C 6,7 C 97 % 999,8 hPa 0,0 l/m 0 min 0 min 0 W/m 0,0 km/h (0 Bft) 93,62 %
05.11.2019 23:40 8,2 C 7,2 C 6,7 C 97 % 999,7 hPa 0,0 l/m 0 min 0 min 0 W/m 0,0 km/h (0 Bft) 95,74 %
05.11.2019 23:42 8,2 C 7,2 C 6,7 C 97 % 999,8 hPa 0,0 l/m 0 min 0 min 0 W/m 0,0 km/h (0 Bft) 95,74 %
05.11.2019 23:44 8,2 C 7,2 C 6,7 C 97 % 999,8 hPa 0,0 l/m 0 min 0 min 0 W/m 0,0 km/h (0 Bft) 95,74 %
05.11.2019 23:46 8,2 C 7,2 C 6,7 C 97 % 999,8 hPa 0,0 l/m 0 min 0 min 0 W/m 0,0 km/h (0 Bft) 97,83 %
05.11.2019 23:48 8,2 C 7,2 C 6,7 C 97 % 999,8 hPa 0,0 l/m 0 min 0 min 0 W/m 0,0 km/h (0 Bft) 97,87 %
05.11.2019 23:50 8,2 C 7,2 C 6,7 C 97 % 999,8 hPa 0,0 l/m 0 min 0 min 0 W/m 0,0 km/h (0 Bft) 97,87 %
05.11.2019 23:52 8,2 C 7,2 C 6,7 C 97 % 999,9 hPa 0,0 l/m 0 min 0 min 0 W/m 0,0 km/h (0 Bft) 97,87 %
05.11.2019 23:54 8,2 C 7,2 C 7,2 C 97 % 999,9 hPa 0,0 l/m 0 min 0 min 0 W/m 0,0 km/h (0 Bft) 97,87 %
05.11.2019 23:56 8,2 C 7,2 C 7,2 C 97 % 999,9 hPa 0,0 l/m 0 min 0 min 0 W/m 0,0 km/h (0 Bft) 93,62 %
05.11.2019 23:58 8,2 C 7,2 C 7,2 C 97 % 999,9 hPa 0,0 l/m 0 min 0 min 0 W/m 0,0 km/h (0 Bft) 97,83 %
_ Min-Zeit 19:34 17:30 17:40 14:38 00:00 - - - - 00:10 08:06
Minimum _ 7,9 C 6,7 C 6,1 C 92 % 991,9 hPa - - - - 0,0 km/h (0 Bft) 41,18 %
_ Max-Zeit 14:04 11:54 11:46 07:30 23:52 03:26 11:44 06:08 11:48 12:08 00:02
Maximum _ 10,8 C 10,6 C 8,9 C 98 % 999,9 hPa 0,2 l/m 2 min 4 min 246 W/m 25,7 km/h
S (4 Bft)
100,00 %
Durchschnitt _ 9,1 C 8,1 C 7,5 C 96 % 996,5 hPa #0,8 l/m #16 min. #3:48 h 67 W/m 4,0 km/h (1 Bft) 97,27 %
© 2019 W. Hausmann